<?xml version='1.0' encoding='UTF-8'?><gpx version="1.1" creator="JPX - https://github.com/jenetics/jpx" xmlns="http://www.topografix.com/GPX/1/1"><trk><trkseg><trkpt lat="45.77703353843639" lon="11.447981022257977"><ele>269.5</ele><time>2026-05-02T11:25:44.431Z</time></trkpt><trkpt lat="45.77695748790533" lon="11.44794320349004"><ele>269.0</ele><time>2026-05-02T11:26:23.427Z</time></trkpt><trkpt lat="45.77684393976599" lon="11.447820806845213"><ele>268.5</ele><time>2026-05-02T11:26:53.431Z</time></trkpt><trkpt lat="45.77667649478357" lon="11.44763621881868"><ele>268.0</ele><time>2026-05-02T11:26:59.431Z</time></trkpt><trkpt lat="45.77672872739021" lon="11.447692509979275"><ele>268.0</ele><time>2026-05-02T11:27:05.439Z</time></trkpt><trkpt lat="45.77682308479847" lon="11.447806089564994"><ele>268.0</ele><time>2026-05-02T11:27:11.424Z</time></trkpt><trkpt lat="45.776899855308734" lon="11.447857039667165"><ele>268.0</ele><time>2026-05-02T11:27:22.429Z</time></trkpt><trkpt lat="45.77672967704754" lon="11.447695820762947"><ele>268.0</ele><time>2026-05-02T11:27:28.804Z</time></trkpt><trkpt lat="45.77684995592964" lon="11.44780613212259"><ele>268.0</ele><time>2026-05-02T11:27:43.026Z</time></trkpt><trkpt lat="45.77674798989542" lon="11.448003205157436"><ele>268.0</ele><time>2026-05-02T11:27:51.019Z</time></trkpt><trkpt lat="45.77677918276432" lon="11.447851094896425"><ele>268.0</ele><time>2026-05-02T11:27:52.018Z</time></trkpt><trkpt lat="45.77689269110485" lon="11.44779028786373"><ele>268.0</ele><time>2026-05-02T11:28:24.001Z</time></trkpt><trkpt lat="45.77682411517517" lon="11.44780449980747"><ele>268.0</ele><time>2026-05-02T11:28:27.001Z</time></trkpt><trkpt lat="45.776749766861855" lon="11.447824526699005"><ele>268.0</ele><time>2026-05-02T11:29:07.999Z</time></trkpt><trkpt lat="45.77683446675341" lon="11.447763140442172"><ele>268.0</ele><time>2026-05-02T11:29:21.999Z</time></trkpt><trkpt lat="45.77680610783246" lon="11.447681477279419"><ele>268.0</ele><time>2026-05-02T11:29:25.999Z</time></trkpt><trkpt lat="45.77683283543227" lon="11.447767346979294"><ele>268.0</ele><time>2026-05-02T11:29:58Z</time></trkpt><trkpt lat="45.77687687863023" lon="11.447838354475724"><ele>268.0</ele><time>2026-05-02T11:32:53Z</time></trkpt><trkpt lat="45.77692418475938" lon="11.447906647282828"><ele>268.0</ele><time>2026-05-02T11:32:55Z</time></trkpt><trkpt lat="45.77698980846015" lon="11.44795466096291"><ele>268.0</ele><time>2026-05-02T11:32:57Z</time></trkpt><trkpt lat="45.77707271269472" lon="11.447904559587142"><ele>268.0</ele><time>2026-05-02T11:32:59Z</time></trkpt><trkpt lat="45.77711009536962" lon="11.447802928760284"><ele>268.0</ele><time>2026-05-02T11:33:01Z</time></trkpt><trkpt lat="45.777172250004014" lon="11.447754886639748"><ele>268.0</ele><time>2026-05-02T11:33:03Z</time></trkpt><trkpt lat="45.77733340999228" lon="11.447905987519581"><ele>268.0</ele><time>2026-05-02T11:33:07Z</time></trkpt><trkpt lat="45.77741534329666" lon="11.44799505061935"><ele>268.4</ele><time>2026-05-02T11:33:09Z</time></trkpt><trkpt lat="45.777481682479575" lon="11.448080283090624"><ele>268.8</ele><time>2026-05-02T11:33:11Z</time></trkpt><trkpt lat="45.7774526180464" lon="11.448198771125504"><ele>269.2</ele><time>2026-05-02T11:33:13Z</time></trkpt><trkpt lat="45.77738761928948" lon="11.448311600007305"><ele>269.6</ele><time>2026-05-02T11:33:15Z</time></trkpt><trkpt lat="45.77732917347195" lon="11.448434786870415"><ele>270.0</ele><time>2026-05-02T11:33:17Z</time></trkpt><trkpt lat="45.77726103864502" lon="11.448556575341117"><ele>270.0</ele><time>2026-05-02T11:33:19Z</time></trkpt><trkpt lat="45.777186817319475" lon="11.44868454216347"><ele>270.0</ele><time>2026-05-02T11:33:21Z</time></trkpt><trkpt lat="45.77713937131719" lon="11.44883318522144"><ele>270.0</ele><time>2026-05-02T11:33:23Z</time></trkpt><trkpt lat="45.77719116384573" lon="11.448977477360161"><ele>270.0</ele><time>2026-05-02T11:33:25Z</time></trkpt><trkpt lat="45.77727866592535" lon="11.449074739206424"><ele>270.3333333333333</ele><time>2026-05-02T11:33:27Z</time></trkpt><trkpt lat="45.77733029908864" lon="11.449150696097167"><ele>270.6666666666667</ele><time>2026-05-02T11:33:28.999Z</time></trkpt><trkpt lat="45.777402030406286" lon="11.449226484187923"><ele>271.0</ele><time>2026-05-02T11:34:45Z</time></trkpt><trkpt lat="45.77741096316006" lon="11.449345120319787"><ele>271.33333333333337</ele><time>2026-05-02T11:34:47Z</time></trkpt><trkpt lat="45.77737053775775" lon="11.449425867948154"><ele>271.6666666666667</ele><time>2026-05-02T11:34:48Z</time></trkpt><trkpt lat="45.777323665737455" lon="11.449506240102341"><ele>272.0</ele><time>2026-05-02T11:34:49Z</time></trkpt><trkpt lat="45.77728401693081" lon="11.44960212500427"><ele>273.33333333333337</ele><time>2026-05-02T11:34:50Z</time></trkpt><trkpt lat="45.77724255756331" lon="11.449698456558936"><ele>274.6666666666667</ele><time>2026-05-02T11:34:51Z</time></trkpt><trkpt lat="45.777201816192516" lon="11.449788334510167"><ele>276.0</ele><time>2026-05-02T11:34:52Z</time></trkpt><trkpt lat="45.7771655743953" lon="11.449870393849293"><ele>277.3333333333333</ele><time>2026-05-02T11:34:53Z</time></trkpt><trkpt lat="45.777126063251316" lon="11.449944292499183"><ele>278.66666666666663</ele><time>2026-05-02T11:34:54Z</time></trkpt><trkpt lat="45.77703342329254" lon="11.450063534890601"><ele>280.0</ele><time>2026-05-02T11:34:56Z</time></trkpt><trkpt lat="45.77693226573109" lon="11.450134810755886"><ele>280.0</ele><time>2026-05-02T11:34:58Z</time></trkpt><trkpt lat="45.776856559764475" lon="11.450185454700803"><ele>280.0</ele><time>2026-05-02T11:35:00Z</time></trkpt><trkpt lat="45.77678936663882" lon="11.450122498610483"><ele>280.0</ele><time>2026-05-02T11:35:02Z</time></trkpt><trkpt lat="45.776670044319346" lon="11.450140268831186"><ele>280.0</ele><time>2026-05-02T11:35:06Z</time></trkpt><trkpt lat="45.77658290977222" lon="11.450100862127261"><ele>280.0</ele><time>2026-05-02T11:35:07Z</time></trkpt><trkpt lat="45.77646600532339" lon="11.450122565463614"><ele>279.0</ele><time>2026-05-02T11:35:08Z</time></trkpt><trkpt lat="45.77639862651997" lon="11.45010247320403"><ele>278.0</ele><time>2026-05-02T11:35:09Z</time></trkpt><trkpt lat="45.776342791703755" lon="11.45017600547672"><ele>277.0</ele><time>2026-05-02T11:35:11Z</time></trkpt><trkpt lat="45.776257201228766" lon="11.450268899552599"><ele>276.0</ele><time>2026-05-02T11:35:13Z</time></trkpt><trkpt lat="45.77615003561428" lon="11.450320764405472"><ele>275.0</ele><time>2026-05-02T11:35:15Z</time></trkpt><trkpt lat="45.77605239006547" lon="11.450345270409347"><ele>275.2</ele><time>2026-05-02T11:35:17Z</time></trkpt><trkpt lat="45.77595570932449" lon="11.45039078878996"><ele>275.4</ele><time>2026-05-02T11:35:19Z</time></trkpt><trkpt lat="45.775870673462286" lon="11.450445168691992"><ele>275.6</ele><time>2026-05-02T11:35:21Z</time></trkpt><trkpt lat="45.77584321330759" lon="11.450598460957888"><ele>275.8</ele><time>2026-05-02T11:35:23Z</time></trkpt><trkpt lat="45.775822981663424" lon="11.450733659520461"><ele>276.0</ele><time>2026-05-02T11:35:25Z</time></trkpt><trkpt lat="45.77578501391423" lon="11.450894660747545"><ele>276.0</ele><time>2026-05-02T11:35:27Z</time></trkpt><trkpt lat="45.7757439421759" lon="11.451061511120479"><ele>276.0</ele><time>2026-05-02T11:35:28.999Z</time></trkpt><trkpt lat="45.77568466397633" lon="11.451207289176581"><ele>276.0</ele><time>2026-05-02T11:35:30.999Z</time></trkpt><trkpt lat="45.77558458329175" lon="11.4513006743107"><ele>276.0</ele><time>2026-05-02T11:35:32.999Z</time></trkpt><trkpt lat="45.77551743018893" lon="11.451363155114356"><ele>276.0</ele><time>2026-05-02T11:35:34.999Z</time></trkpt><trkpt lat="45.77555068707276" lon="11.451482250591285"><ele>277.3333333333333</ele><time>2026-05-02T11:35:37.999Z</time></trkpt><trkpt lat="45.775637611769994" lon="11.451532487820772"><ele>278.6666666666667</ele><time>2026-05-02T11:35:39.999Z</time></trkpt><trkpt lat="45.77573652297296" lon="11.451633341150439"><ele>280.0</ele><time>2026-05-02T11:35:41.999Z</time></trkpt><trkpt lat="45.775788051616715" lon="11.45168554855401"><ele>281.33333333333337</ele><time>2026-05-02T11:35:42.999Z</time></trkpt><trkpt lat="45.77584698685007" lon="11.451722478904253"><ele>282.6666666666667</ele><time>2026-05-02T11:35:43.999Z</time></trkpt><trkpt lat="45.77590787550392" lon="11.451751873978049"><ele>284.0</ele><time>2026-05-02T11:35:44.999Z</time></trkpt><trkpt lat="45.77597940598249" lon="11.45177427940911"><ele>286.33333333333337</ele><time>2026-05-02T11:35:45.999Z</time></trkpt><trkpt lat="45.7760517742436" lon="11.451790293306486"><ele>288.6666666666667</ele><time>2026-05-02T11:35:46.999Z</time></trkpt><trkpt lat="45.776122621386904" lon="11.451813017627819"><ele>291.0</ele><time>2026-05-02T11:35:47.999Z</time></trkpt><trkpt lat="45.77619217591165" lon="11.45186084567023"><ele>293.3333333333333</ele><time>2026-05-02T11:35:48.999Z</time></trkpt><trkpt lat="45.77629473638729" lon="11.451948611562342"><ele>295.66666666666663</ele><time>2026-05-02T11:35:50.999Z</time></trkpt><trkpt lat="45.77633944480549" lon="11.452019540786443"><ele>298.0</ele><time>2026-05-02T11:35:51.999Z</time></trkpt><trkpt lat="45.77635738861167" lon="11.45211423944473"><ele>299.8333333333333</ele><time>2026-05-02T11:35:52.999Z</time></trkpt><trkpt lat="45.776395865900376" lon="11.452192199254494"><ele>301.66666666666663</ele><time>2026-05-02T11:35:53.999Z</time></trkpt><trkpt lat="45.776454468018166" lon="11.452255210032014"><ele>303.5</ele><time>2026-05-02T11:35:54.999Z</time></trkpt><trkpt lat="45.77652811378462" lon="11.45230177947478"><ele>305.3333333333333</ele><time>2026-05-02T11:35:55.999Z</time></trkpt><trkpt lat="45.77660179857318" lon="11.452353465393708"><ele>307.1666666666667</ele><time>2026-05-02T11:35:56.999Z</time></trkpt><trkpt lat="45.77666349447745" lon="11.452427463590961"><ele>309.0</ele><time>2026-05-02T11:35:57.999Z</time></trkpt><trkpt lat="45.776710722963486" lon="11.452520822236329"><ele>309.0</ele><time>2026-05-02T11:35:58.999Z</time></trkpt><trkpt lat="45.776699936059366" lon="11.452641606844118"><ele>309.0</ele><time>2026-05-02T11:35:59.999Z</time></trkpt><trkpt lat="45.77670009917968" lon="11.452771542828978"><ele>309.0</ele><time>2026-05-02T11:36:00.999Z</time></trkpt><trkpt lat="45.77671821845398" lon="11.452884215470782"><ele>309.0</ele><time>2026-05-02T11:36:01.999Z</time></trkpt><trkpt lat="45.77671434077625" lon="11.452985932067309"><ele>309.0</ele><time>2026-05-02T11:36:02.999Z</time></trkpt><trkpt lat="45.77671945339337" lon="11.453086541485453"><ele>309.0</ele><time>2026-05-02T11:36:03.999Z</time></trkpt><trkpt lat="45.77674586712897" lon="11.453178227615124"><ele>310.3333333333333</ele><time>2026-05-02T11:36:05Z</time></trkpt><trkpt lat="45.77680340860342" lon="11.453244071326067"><ele>311.6666666666667</ele><time>2026-05-02T11:36:06Z</time></trkpt><trkpt lat="45.77687237240169" lon="11.453297401524674"><ele>313.0</ele><time>2026-05-02T11:36:07Z</time></trkpt><trkpt lat="45.776950758036605" lon="11.453347628248972"><ele>314.33333333333337</ele><time>2026-05-02T11:36:08Z</time></trkpt><trkpt lat="45.77702048569007" lon="11.4534004965012"><ele>315.6666666666667</ele><time>2026-05-02T11:36:09Z</time></trkpt><trkpt lat="45.77707378468658" lon="11.453452919727184"><ele>317.0</ele><time>2026-05-02T11:36:10Z</time></trkpt><trkpt lat="45.77714713121898" lon="11.453560472446245"><ele>321.0</ele><time>2026-05-02T11:36:12Z</time></trkpt><trkpt lat="45.77715841247074" lon="11.453679290140952"><ele>325.0</ele><time>2026-05-02T11:36:14Z</time></trkpt><trkpt lat="45.77722786460014" lon="11.453652352564207"><ele>329.0</ele><time>2026-05-02T11:36:16Z</time></trkpt><trkpt lat="45.77717245920022" lon="11.453753652142485"><ele>333.0</ele><time>2026-05-02T11:36:19Z</time></trkpt><trkpt lat="45.777122832551086" lon="11.453618635091871"><ele>337.0</ele><time>2026-05-02T11:36:20Z</time></trkpt><trkpt lat="45.777101829532064" lon="11.453704238360242"><ele>341.0</ele><time>2026-05-02T11:36:25Z</time></trkpt><trkpt lat="45.77736902792922" lon="11.453851777825506"><ele>342.6666666666667</ele><time>2026-05-02T11:36:41Z</time></trkpt><trkpt lat="45.77742446274332" lon="11.453921580276262"><ele>344.33333333333337</ele><time>2026-05-02T11:37:25Z</time></trkpt><trkpt lat="45.77748072133111" lon="11.453999618484747"><ele>346.0</ele><time>2026-05-02T11:37:27Z</time></trkpt><trkpt lat="45.7775452684595" lon="11.454090355030422"><ele>347.6666666666667</ele><time>2026-05-02T11:37:29.999Z</time></trkpt><trkpt lat="45.77761513949878" lon="11.454185768382942"><ele>349.3333333333333</ele><time>2026-05-02T11:37:32.999Z</time></trkpt><trkpt lat="45.777682755199194" lon="11.45422712793066"><ele>351.0</ele><time>2026-05-02T11:37:35.999Z</time></trkpt><trkpt lat="45.77779389507248" lon="11.454395867222136"><ele>355.0</ele><time>2026-05-02T11:37:50.999Z</time></trkpt><trkpt lat="45.77785530656295" lon="11.45444866710238"><ele>359.0</ele><time>2026-05-02T11:38:00.999Z</time></trkpt><trkpt lat="45.77790939305141" lon="11.454525841157823"><ele>363.0</ele><time>2026-05-02T11:38:04.999Z</time></trkpt><trkpt lat="45.77796262546518" lon="11.454599594218891"><ele>367.0</ele><time>2026-05-02T11:38:08.999Z</time></trkpt><trkpt lat="45.77803608896134" lon="11.454639567822055"><ele>371.0</ele><time>2026-05-02T11:38:14Z</time></trkpt><trkpt lat="45.7781053871034" lon="11.454615938539215"><ele>375.0</ele><time>2026-05-02T11:38:20Z</time></trkpt><trkpt lat="45.77821001974931" lon="11.45462518725539"><ele>375.0</ele><time>2026-05-02T11:38:36Z</time></trkpt><trkpt lat="45.77818453530611" lon="11.45450921788364"><ele>375.0</ele><time>2026-05-02T11:38:41Z</time></trkpt><trkpt lat="45.778140105950754" lon="11.45440764431062"><ele>375.0</ele><time>2026-05-02T11:38:44Z</time></trkpt><trkpt lat="45.77808504273278" lon="11.454314968552334"><ele>375.0</ele><time>2026-05-02T11:38:47Z</time></trkpt><trkpt lat="45.778031006187284" lon="11.454263431524506"><ele>375.0</ele><time>2026-05-02T11:38:50Z</time></trkpt><trkpt lat="45.777970150162915" lon="11.454175408987817"><ele>375.0</ele><time>2026-05-02T11:38:53Z</time></trkpt><trkpt lat="45.77790318117894" lon="11.45406640072175"><ele>375.0</ele><time>2026-05-02T11:38:56Z</time></trkpt><trkpt lat="45.777851148109235" lon="11.453970057184314"><ele>375.0</ele><time>2026-05-02T11:38:58Z</time></trkpt><trkpt lat="45.7778107353491" lon="11.45386781442965"><ele>375.0</ele><time>2026-05-02T11:39:00Z</time></trkpt><trkpt lat="45.777773987376406" lon="11.453770487644853"><ele>375.0</ele><time>2026-05-02T11:39:02Z</time></trkpt><trkpt lat="45.77772293035626" lon="11.453699586567295"><ele>375.0</ele><time>2026-05-02T11:39:04Z</time></trkpt><trkpt lat="45.77767826561791" lon="11.453593402714594"><ele>375.0</ele><time>2026-05-02T11:39:07Z</time></trkpt><trkpt lat="45.777648029100575" lon="11.453509868208844"><ele>373.6666666666667</ele><time>2026-05-02T11:39:09Z</time></trkpt><trkpt lat="45.77759662961375" lon="11.45339701684731"><ele>372.3333333333333</ele><time>2026-05-02T11:39:12Z</time></trkpt><trkpt lat="45.7776443605183" lon="11.45333371767733"><ele>371.0</ele><time>2026-05-02T11:39:18Z</time></trkpt><trkpt lat="45.77772085244035" lon="11.453330420754796"><ele>369.66666666666663</ele><time>2026-05-02T11:39:23Z</time></trkpt><trkpt lat="45.77779853076175" lon="11.453267971145733"><ele>368.3333333333333</ele><time>2026-05-02T11:39:25Z</time></trkpt><trkpt lat="45.77786538365068" lon="11.45322809520475"><ele>367.0</ele><time>2026-05-02T11:39:37.999Z</time></trkpt><trkpt lat="45.77795801352434" lon="11.453188755539621"><ele>367.0</ele><time>2026-05-02T11:40:01.999Z</time></trkpt><trkpt lat="45.777999748484405" lon="11.453284607207395"><ele>367.0</ele><time>2026-05-02T11:40:33Z</time></trkpt><trkpt lat="45.777955765322716" lon="11.4531958143061"><ele>367.0</ele><time>2026-05-02T11:41:58.999Z</time></trkpt><trkpt lat="45.77800290726487" lon="11.453261797349041"><ele>367.0</ele><time>2026-05-02T11:42:01.999Z</time></trkpt><trkpt lat="45.77806430157539" lon="11.453220959999173"><ele>367.0</ele><time>2026-05-02T11:42:09.999Z</time></trkpt><trkpt lat="45.77813790241922" lon="11.453227878658954"><ele>367.0</ele><time>2026-05-02T11:47:07Z</time></trkpt><trkpt lat="45.77819963731394" lon="11.45315696839685"><ele>367.0</ele><time>2026-05-02T11:47:16Z</time></trkpt><trkpt lat="45.77828802125959" lon="11.45315107906132"><ele>367.0</ele><time>2026-05-02T11:47:21Z</time></trkpt><trkpt lat="45.778364740819605" lon="11.453131029831367"><ele>367.0</ele><time>2026-05-02T11:47:28Z</time></trkpt><trkpt lat="45.7784350553087" lon="11.453135757317675"><ele>367.0</ele><time>2026-05-02T11:47:31Z</time></trkpt><trkpt lat="45.778498669937115" lon="11.453127726409518"><ele>367.0</ele><time>2026-05-02T11:47:35Z</time></trkpt><trkpt lat="45.778564443783445" lon="11.453143344614586"><ele>367.0</ele><time>2026-05-02T11:47:39Z</time></trkpt><trkpt lat="45.778647648863306" lon="11.453143601807117"><ele>367.0</ele><time>2026-05-02T11:47:42Z</time></trkpt><trkpt lat="45.77871688921946" lon="11.453190655937878"><ele>367.0</ele><time>2026-05-02T11:47:45Z</time></trkpt><trkpt lat="45.77879523009632" lon="11.453210700000922"><ele>371.0</ele><time>2026-05-02T11:47:48Z</time></trkpt><trkpt lat="45.77886230435044" lon="11.453285613120842"><ele>375.0</ele><time>2026-05-02T11:47:52Z</time></trkpt><trkpt lat="45.77893339736442" lon="11.453291425950347"><ele>379.0</ele><time>2026-05-02T11:47:54Z</time></trkpt><trkpt lat="45.77902518515592" lon="11.453309134154884"><ele>383.0</ele><time>2026-05-02T11:47:56.999Z</time></trkpt><trkpt lat="45.77908299143841" lon="11.453392581567641"><ele>387.00000000000006</ele><time>2026-05-02T11:47:58.999Z</time></trkpt><trkpt lat="45.7791489815214" lon="11.453484518825572"><ele>391.0</ele><time>2026-05-02T11:48:01.999Z</time></trkpt><trkpt lat="45.779230254425634" lon="11.453514857433914"><ele>391.0</ele><time>2026-05-02T11:48:03.999Z</time></trkpt><trkpt lat="45.779343491023056" lon="11.453462511610248"><ele>391.0</ele><time>2026-05-02T11:48:05.999Z</time></trkpt><trkpt lat="45.779439396238296" lon="11.453370851183033"><ele>391.0</ele><time>2026-05-02T11:48:07.999Z</time></trkpt><trkpt lat="45.77954447241764" lon="11.453299350207839"><ele>391.0</ele><time>2026-05-02T11:48:09.999Z</time></trkpt><trkpt lat="45.77961785545676" lon="11.453260549976994"><ele>391.0</ele><time>2026-05-02T11:48:11.999Z</time></trkpt><trkpt lat="45.77963931597391" lon="11.453153765875733"><ele>390.33333333333337</ele><time>2026-05-02T11:48:14.999Z</time></trkpt><trkpt lat="45.779684743289" lon="11.453077541449932"><ele>389.6666666666667</ele><time>2026-05-02T11:48:16.999Z</time></trkpt><trkpt lat="45.77975932050498" lon="11.4530110476228"><ele>389.0</ele><time>2026-05-02T11:48:19.999Z</time></trkpt><trkpt lat="45.77984637929009" lon="11.452989395887249"><ele>388.33333333333337</ele><time>2026-05-02T11:48:21.999Z</time></trkpt><trkpt lat="45.77991295533258" lon="11.45289694173847"><ele>387.6666666666667</ele><time>2026-05-02T11:48:24.999Z</time></trkpt><trkpt lat="45.77997033381038" lon="11.452851114240891"><ele>387.0</ele><time>2026-05-02T11:48:26.999Z</time></trkpt><trkpt lat="45.780019199630125" lon="11.452787031866427"><ele>387.0</ele><time>2026-05-02T11:48:28.999Z</time></trkpt><trkpt lat="45.780084239936976" lon="11.45271418498883"><ele>387.0</ele><time>2026-05-02T11:48:29.999Z</time></trkpt><trkpt lat="45.780164798461996" lon="11.452631976550235"><ele>387.0</ele><time>2026-05-02T11:48:31.999Z</time></trkpt><trkpt lat="45.78024746833162" lon="11.45255455025984"><ele>387.0</ele><time>2026-05-02T11:48:33.999Z</time></trkpt><trkpt lat="45.78028566572921" lon="11.452474152022656"><ele>387.0</ele><time>2026-05-02T11:48:35.999Z</time></trkpt><trkpt lat="45.78032317584379" lon="11.452392431131798"><ele>387.0</ele><time>2026-05-02T11:48:43Z</time></trkpt><trkpt lat="45.78033527227916" lon="11.452282797612924"><ele>391.6666666666667</ele><time>2026-05-02T11:49:19Z</time></trkpt><trkpt lat="45.78035916295979" lon="11.452160353667045"><ele>396.33333333333337</ele><time>2026-05-02T11:49:22Z</time></trkpt><trkpt lat="45.780352439436044" lon="11.45204513811583"><ele>401.0</ele><time>2026-05-02T11:49:25Z</time></trkpt><trkpt lat="45.78035870679722" lon="11.451949749692249"><ele>405.6666666666667</ele><time>2026-05-02T11:49:28Z</time></trkpt><trkpt lat="45.78036536936483" lon="11.45185935400875"><ele>410.33333333333337</ele><time>2026-05-02T11:49:31Z</time></trkpt><trkpt lat="45.7803641325314" lon="11.451756090882387"><ele>415.0</ele><time>2026-05-02T11:49:33Z</time></trkpt><trkpt lat="45.780378993108116" lon="11.451573421841148"><ele>415.00000000000006</ele><time>2026-05-02T11:49:35Z</time></trkpt><trkpt lat="45.78038569424509" lon="11.451474787929284"><ele>415.0</ele><time>2026-05-02T11:49:37Z</time></trkpt><trkpt lat="45.78038270190366" lon="11.451371474604928"><ele>415.0</ele><time>2026-05-02T11:49:39Z</time></trkpt><trkpt lat="45.78037544954109" lon="11.451257919849759"><ele>415.0</ele><time>2026-05-02T11:49:41Z</time></trkpt><trkpt lat="45.78036710302432" lon="11.451121344528966"><ele>415.00000000000006</ele><time>2026-05-02T11:49:43Z</time></trkpt><trkpt lat="45.78038372512188" lon="11.451021255163651"><ele>415.0</ele><time>2026-05-02T11:49:44Z</time></trkpt><trkpt lat="45.780379836734184" lon="11.450927040872783"><ele>411.6666666666667</ele><time>2026-05-02T11:49:46Z</time></trkpt><trkpt lat="45.78034382130347" lon="11.450844520104479"><ele>408.33333333333337</ele><time>2026-05-02T11:49:49Z</time></trkpt><trkpt lat="45.78043658967449" lon="11.450372434907807"><ele>405.0</ele><time>2026-05-02T11:49:50Z</time></trkpt><trkpt lat="45.78042941170673" lon="11.450229410812394"><ele>403.5</ele><time>2026-05-02T11:49:52Z</time></trkpt><trkpt lat="45.78043212430933" lon="11.45010990435457"><ele>402.0</ele><time>2026-05-02T11:49:55Z</time></trkpt><trkpt lat="45.78045174774661" lon="11.449978248695516"><ele>400.5</ele><time>2026-05-02T11:49:58Z</time></trkpt><trkpt lat="45.780518088895704" lon="11.449905106183651"><ele>399.0</ele><time>2026-05-02T11:50:00Z</time></trkpt><trkpt lat="45.780593482281205" lon="11.44982667932426"><ele>397.5</ele><time>2026-05-02T11:50:02Z</time></trkpt><trkpt lat="45.78064039727893" lon="11.449718189841272"><ele>396.0</ele><time>2026-05-02T11:50:04.999Z</time></trkpt><trkpt lat="45.780659842706115" lon="11.449604666155869"><ele>393.20000000000005</ele><time>2026-05-02T11:50:08.999Z</time></trkpt><trkpt lat="45.780632612511816" lon="11.44951626987584"><ele>390.40000000000003</ele><time>2026-05-02T11:50:13.999Z</time></trkpt><trkpt lat="45.78061294302034" lon="11.44928162443382"><ele>387.6</ele><time>2026-05-02T11:50:15.999Z</time></trkpt><trkpt lat="45.780597448317536" lon="11.449190130931939"><ele>384.8</ele><time>2026-05-02T11:50:17.999Z</time></trkpt><trkpt lat="45.780614514162366" lon="11.449097315956584"><ele>382.0</ele><time>2026-05-02T11:50:19.999Z</time></trkpt><trkpt lat="45.780628108003796" lon="11.448972184920521"><ele>382.0</ele><time>2026-05-02T11:50:26.999Z</time></trkpt><trkpt lat="45.7806464269607" lon="11.448856701069463"><ele>382.0</ele><time>2026-05-02T11:50:29.999Z</time></trkpt><trkpt lat="45.78068921039761" lon="11.448737018935939"><ele>382.0</ele><time>2026-05-02T11:50:33.999Z</time></trkpt><trkpt lat="45.78074493171683" lon="11.448665126448644"><ele>382.0</ele><time>2026-05-02T11:50:49Z</time></trkpt><trkpt lat="45.780753848661114" lon="11.448538049142394"><ele>382.0</ele><time>2026-05-02T11:50:52Z</time></trkpt><trkpt lat="45.780805584466606" lon="11.448448303458992"><ele>382.0</ele><time>2026-05-02T11:50:54Z</time></trkpt><trkpt lat="45.780868933153705" lon="11.448362200489063"><ele>382.40000000000003</ele><time>2026-05-02T11:50:56Z</time></trkpt><trkpt lat="45.78087390763739" lon="11.448248989621788"><ele>382.8</ele><time>2026-05-02T11:51:00Z</time></trkpt><trkpt lat="45.78091073402109" lon="11.448105454153136"><ele>383.2</ele><time>2026-05-02T11:51:02Z</time></trkpt><trkpt lat="45.78099377169846" lon="11.447997502220987"><ele>383.6</ele><time>2026-05-02T11:51:04Z</time></trkpt><trkpt lat="45.7810529337646" lon="11.447877221993108"><ele>384.0</ele><time>2026-05-02T11:51:07Z</time></trkpt><trkpt lat="45.781101024734454" lon="11.447796059232752"><ele>384.0</ele><time>2026-05-02T11:51:09Z</time></trkpt><trkpt lat="45.781159700333525" lon="11.44775908697397"><ele>384.0</ele><time>2026-05-02T11:51:11Z</time></trkpt><trkpt lat="45.78117762466837" lon="11.44762295488873"><ele>384.0</ele><time>2026-05-02T11:51:14Z</time></trkpt><trkpt lat="45.78122066324438" lon="11.447505291738157"><ele>384.0</ele><time>2026-05-02T11:51:16Z</time></trkpt><trkpt lat="45.781282199711015" lon="11.447462158341239"><ele>384.0</ele><time>2026-05-02T11:51:19Z</time></trkpt><trkpt lat="45.781268022867636" lon="11.447369159925643"><ele>384.0</ele><time>2026-05-02T11:51:23Z</time></trkpt><trkpt lat="45.78122350422473" lon="11.447301513007531"><ele>384.0</ele><time>2026-05-02T11:51:25Z</time></trkpt><trkpt lat="45.78116565996108" lon="11.44721287998629"><ele>384.0</ele><time>2026-05-02T11:51:27Z</time></trkpt><trkpt lat="45.78115414819216" lon="11.447072011325654"><ele>384.0</ele><time>2026-05-02T11:51:32Z</time></trkpt><trkpt lat="45.78110504494852" lon="11.447012079413001"><ele>384.0</ele><time>2026-05-02T11:51:35Z</time></trkpt><trkpt lat="45.78109791294332" lon="11.44688470752345"><ele>384.0</ele><time>2026-05-02T11:51:38Z</time></trkpt><trkpt lat="45.78109967015919" lon="11.446755363494475"><ele>384.0</ele><time>2026-05-02T11:51:40Z</time></trkpt><trkpt lat="45.781085099107784" lon="11.446630081759556"><ele>382.99999999999994</ele><time>2026-05-02T11:51:42Z</time></trkpt><trkpt lat="45.78109877527323" lon="11.446498884984143"><ele>382.0</ele><time>2026-05-02T11:51:44Z</time></trkpt><trkpt lat="45.78111268596599" lon="11.446409375118161"><ele>381.0</ele><time>2026-05-02T11:51:48Z</time></trkpt><trkpt lat="45.781133855068106" lon="11.446310353200667"><ele>380.0</ele><time>2026-05-02T11:51:56Z</time></trkpt><trkpt lat="45.78120034235385" lon="11.446280653913412"><ele>379.0</ele><time>2026-05-02T11:52:01Z</time></trkpt><trkpt lat="45.78124139270345" lon="11.446361899364707"><ele>377.99999999999994</ele><time>2026-05-02T11:52:06Z</time></trkpt><trkpt lat="45.78131172319198" lon="11.446406756254635"><ele>377.0</ele><time>2026-05-02T11:52:08.999Z</time></trkpt><trkpt lat="45.781389690819616" lon="11.446426970599497"><ele>377.0</ele><time>2026-05-02T11:52:12.999Z</time></trkpt><trkpt lat="45.781464070930774" lon="11.446453478497846"><ele>377.0</ele><time>2026-05-02T11:52:15.999Z</time></trkpt><trkpt lat="45.78155458524076" lon="11.446485149911803"><ele>377.0</ele><time>2026-05-02T11:54:03Z</time></trkpt><trkpt lat="45.78157749646497" lon="11.446584208353404"><ele>377.0</ele><time>2026-05-02T11:54:11.999Z</time></trkpt><trkpt lat="45.78159097877391" lon="11.446672916306186"><ele>377.0</ele><time>2026-05-02T11:54:15.999Z</time></trkpt><trkpt lat="45.7816675251066" lon="11.446691668576495"><ele>377.0</ele><time>2026-05-02T11:54:22.999Z</time></trkpt><trkpt lat="45.78171271964977" lon="11.446761791276948"><ele>376.99999999999994</ele><time>2026-05-02T11:54:30.999Z</time></trkpt><trkpt lat="45.78178106969322" lon="11.446787487196078"><ele>377.0</ele><time>2026-05-02T11:54:36.999Z</time></trkpt><trkpt lat="45.78184963966888" lon="11.446762391257513"><ele>377.0</ele><time>2026-05-02T11:54:44.999Z</time></trkpt><trkpt lat="45.781943529695276" lon="11.446746482382563"><ele>377.0</ele><time>2026-05-02T11:55:30Z</time></trkpt><trkpt lat="45.78196005210318" lon="11.446836307177417"><ele>377.0</ele><time>2026-05-02T11:55:33Z</time></trkpt><trkpt lat="45.782008552408485" lon="11.44691545794956"><ele>376.99999999999994</ele><time>2026-05-02T11:55:37Z</time></trkpt><trkpt lat="45.782062410377726" lon="11.446982679148697"><ele>377.0</ele><time>2026-05-02T11:55:40Z</time></trkpt><trkpt lat="45.78206621405893" lon="11.446861563332286"><ele>383.1666666666667</ele><time>2026-05-02T11:55:43Z</time></trkpt><trkpt lat="45.78209796539218" lon="11.44673787644791"><ele>389.33333333333337</ele><time>2026-05-02T11:55:45Z</time></trkpt><trkpt lat="45.782120330149965" lon="11.446645867927389"><ele>395.5</ele><time>2026-05-02T11:55:47Z</time></trkpt><trkpt lat="45.78218126081685" lon="11.44656946146249"><ele>401.6666666666667</ele><time>2026-05-02T11:55:50Z</time></trkpt><trkpt lat="45.78224800384973" lon="11.446556769636265"><ele>407.8333333333333</ele><time>2026-05-02T11:55:53Z</time></trkpt><trkpt lat="45.78233024926682" lon="11.44650363802319"><ele>414.0</ele><time>2026-05-02T11:55:56Z</time></trkpt><trkpt lat="45.78239394623024" lon="11.446464550493937"><ele>414.0</ele><time>2026-05-02T11:55:58Z</time></trkpt><trkpt lat="45.78247154352573" lon="11.4463834607259"><ele>414.0</ele><time>2026-05-02T11:56:00Z</time></trkpt><trkpt lat="45.78255012261385" lon="11.44630085153115"><ele>414.0</ele><time>2026-05-02T11:56:03Z</time></trkpt><trkpt lat="45.78262410222473" lon="11.446245312346333"><ele>414.0</ele><time>2026-05-02T11:56:05Z</time></trkpt><trkpt lat="45.78268841230643" lon="11.44619555541991"><ele>414.0</ele><time>2026-05-02T11:56:06Z</time></trkpt><trkpt lat="45.78274577683827" lon="11.44608984735934"><ele>414.0</ele><time>2026-05-02T11:56:08Z</time></trkpt><trkpt lat="45.78281672736785" lon="11.446059879755625"><ele>417.1666666666667</ele><time>2026-05-02T11:56:09Z</time></trkpt><trkpt lat="45.782898929688855" lon="11.446036016661433"><ele>420.33333333333337</ele><time>2026-05-02T11:56:11Z</time></trkpt><trkpt lat="45.782988733149516" lon="11.44596333702808"><ele>423.5</ele><time>2026-05-02T11:56:13Z</time></trkpt><trkpt lat="45.783062339306156" lon="11.445913735493919"><ele>426.6666666666667</ele><time>2026-05-02T11:56:18Z</time></trkpt><trkpt lat="45.78312605381232" lon="11.445846963487815"><ele>429.83333333333337</ele><time>2026-05-02T11:56:24.999Z</time></trkpt><trkpt lat="45.783196646473925" lon="11.445860069373301"><ele>433.0</ele><time>2026-05-02T11:56:29.999Z</time></trkpt><trkpt lat="45.78327209322051" lon="11.445963970581241"><ele>433.00000000000006</ele><time>2026-05-02T11:57:19Z</time></trkpt><trkpt lat="45.78331013662824" lon="11.445891503606084"><ele>433.0</ele><time>2026-05-02T11:59:00.999Z</time></trkpt><trkpt lat="45.78335792170674" lon="11.44580125846441"><ele>433.0</ele><time>2026-05-02T11:59:06.999Z</time></trkpt><trkpt lat="45.78339969339959" lon="11.445727699323049"><ele>433.0</ele><time>2026-05-02T11:59:11Z</time></trkpt><trkpt lat="45.783335254157706" lon="11.445626092559847"><ele>433.00000000000006</ele><time>2026-05-02T11:59:21Z</time></trkpt><trkpt lat="45.78331065292948" lon="11.445519856646474"><ele>433.0</ele><time>2026-05-02T11:59:26Z</time></trkpt><trkpt lat="45.783324841613265" lon="11.445411318571711"><ele>432.33333333333337</ele><time>2026-05-02T11:59:29Z</time></trkpt><trkpt lat="45.78339563541978" lon="11.445394437549501"><ele>431.6666666666667</ele><time>2026-05-02T11:59:33Z</time></trkpt><trkpt lat="45.783464479509774" lon="11.445303206680359"><ele>431.0</ele><time>2026-05-02T11:59:36Z</time></trkpt><trkpt lat="45.783535105591135" lon="11.445262723268847"><ele>430.33333333333337</ele><time>2026-05-02T11:59:38Z</time></trkpt><trkpt lat="45.783621841749294" lon="11.445129607376764"><ele>429.6666666666667</ele><time>2026-05-02T11:59:40Z</time></trkpt><trkpt lat="45.78369594247289" lon="11.445164949975474"><ele>429.0</ele><time>2026-05-02T11:59:41Z</time></trkpt><trkpt lat="45.78379913091179" lon="11.445211620697709"><ele>436.6</ele><time>2026-05-02T11:59:43Z</time></trkpt><trkpt lat="45.783916588220215" lon="11.445239799966366"><ele>444.2</ele><time>2026-05-02T11:59:45Z</time></trkpt><trkpt lat="45.7840370190126" lon="11.445263580169877"><ele>451.80000000000007</ele><time>2026-05-02T11:59:47Z</time></trkpt><trkpt lat="45.78414614287938" lon="11.445282178729311"><ele>459.40000000000003</ele><time>2026-05-02T11:59:49Z</time></trkpt><trkpt lat="45.784222821779615" lon="11.445354029483962"><ele>467.0</ele><time>2026-05-02T11:59:51Z</time></trkpt><trkpt lat="45.784306828899304" lon="11.445377450131605"><ele>472.99999999999994</ele><time>2026-05-02T11:59:54Z</time></trkpt><trkpt lat="45.78435487733164" lon="11.445313115229917"><ele>479.0</ele><time>2026-05-02T11:59:58Z</time></trkpt><trkpt lat="45.784399659770685" lon="11.445246637419562"><ele>485.0</ele><time>2026-05-02T12:00:08Z</time></trkpt><trkpt lat="45.78447254208826" lon="11.44524345651426"><ele>491.0</ele><time>2026-05-02T12:00:11Z</time></trkpt><trkpt lat="45.78455704764164" lon="11.445192920546926"><ele>496.99999999999994</ele><time>2026-05-02T12:00:14Z</time></trkpt><trkpt lat="45.78462504445614" lon="11.445178579370618"><ele>503.0</ele><time>2026-05-02T12:00:22Z</time></trkpt><trkpt lat="45.78471086315558" lon="11.445104287948704"><ele>502.99999999999994</ele><time>2026-05-02T12:00:47.999Z</time></trkpt><trkpt lat="45.784803819972865" lon="11.44506582494598"><ele>503.0</ele><time>2026-05-02T12:00:49.999Z</time></trkpt><trkpt lat="45.78484814387996" lon="11.444946799116531"><ele>503.0</ele><time>2026-05-02T12:00:51.999Z</time></trkpt><trkpt lat="45.78489426018914" lon="11.444871284339207"><ele>503.0</ele><time>2026-05-02T12:00:52.999Z</time></trkpt><trkpt lat="45.78497587771662" lon="11.444857406040992"><ele>502.99999999999994</ele><time>2026-05-02T12:00:55.999Z</time></trkpt><trkpt lat="45.78505168322339" lon="11.444816079688685"><ele>503.0</ele><time>2026-05-02T12:02:20Z</time></trkpt><trkpt lat="45.78511570034947" lon="11.444772603262821"><ele>509.3333333333333</ele><time>2026-05-02T12:02:24Z</time></trkpt><trkpt lat="45.785189966217224" lon="11.44479006923473"><ele>515.6666666666666</ele><time>2026-05-02T12:02:42Z</time></trkpt><trkpt lat="45.785247341986114" lon="11.4447204848938"><ele>522.0</ele><time>2026-05-02T12:02:45Z</time></trkpt><trkpt lat="45.78531472385743" lon="11.444721640367618"><ele>528.3333333333334</ele><time>2026-05-02T12:02:52.999Z</time></trkpt><trkpt lat="45.785422674058424" lon="11.444755280241678"><ele>534.6666666666667</ele><time>2026-05-02T12:03:25Z</time></trkpt><trkpt lat="45.785505497933265" lon="11.444741344698098"><ele>541.0</ele><time>2026-05-02T12:03:30Z</time></trkpt><trkpt lat="45.78556403387963" lon="11.444689341980672"><ele>541.0</ele><time>2026-05-02T12:03:33Z</time></trkpt><trkpt lat="45.78563506046577" lon="11.444642305473312"><ele>541.0</ele><time>2026-05-02T12:03:38Z</time></trkpt><trkpt lat="45.785707770785294" lon="11.444599103693381"><ele>541.0</ele><time>2026-05-02T12:03:42Z</time></trkpt><trkpt lat="45.7857581530159" lon="11.444485920176117"><ele>541.0</ele><time>2026-05-02T12:03:46Z</time></trkpt><trkpt lat="45.78581540676436" lon="11.44444587544984"><ele>541.0</ele><time>2026-05-02T12:03:48Z</time></trkpt><trkpt lat="45.78589799744402" lon="11.444381343164814"><ele>541.0</ele><time>2026-05-02T12:04:40Z</time></trkpt><trkpt lat="45.78599291757583" lon="11.444352903639796"><ele>548.8</ele><time>2026-05-02T12:05:17.999Z</time></trkpt><trkpt lat="45.786074166412284" lon="11.444375380336023"><ele>556.6</ele><time>2026-05-02T12:05:21.999Z</time></trkpt><trkpt lat="45.78617362288141" lon="11.444408579762216"><ele>564.4</ele><time>2026-05-02T12:05:23.999Z</time></trkpt><trkpt lat="45.786247701219395" lon="11.444457752792434"><ele>572.2</ele><time>2026-05-02T12:05:25.999Z</time></trkpt><trkpt lat="45.78630752405908" lon="11.444494994173805"><ele>580.0</ele><time>2026-05-02T12:05:29Z</time></trkpt><trkpt lat="45.78645566754663" lon="11.444583868727825"><ele>580.0</ele><time>2026-05-02T12:05:33Z</time></trkpt><trkpt lat="45.786574273356656" lon="11.444612745178864"><ele>580.0</ele><time>2026-05-02T12:05:35Z</time></trkpt><trkpt lat="45.786638150125185" lon="11.44458929553775"><ele>580.0</ele><time>2026-05-02T12:05:37Z</time></trkpt><trkpt lat="45.78668493425005" lon="11.444513994728547"><ele>580.0</ele><time>2026-05-02T12:05:40Z</time></trkpt><trkpt lat="45.78675074877788" lon="11.444440795754486"><ele>580.0</ele><time>2026-05-02T12:05:43Z</time></trkpt><trkpt lat="45.78681395994732" lon="11.444338298318028"><ele>580.0</ele><time>2026-05-02T12:05:46Z</time></trkpt><trkpt lat="45.78686966985179" lon="11.44428934110884"><ele>586.2857142857143</ele><time>2026-05-02T12:05:49Z</time></trkpt><trkpt lat="45.78691832379265" lon="11.444216356653003"><ele>592.5714285714287</ele><time>2026-05-02T12:05:51Z</time></trkpt><trkpt lat="45.78693307925537" lon="11.444125538648098"><ele>598.8571428571429</ele><time>2026-05-02T12:05:54Z</time></trkpt><trkpt lat="45.78693419868933" lon="11.44402828190226"><ele>605.1428571428571</ele><time>2026-05-02T12:06:06Z</time></trkpt><trkpt lat="45.78693924159287" lon="11.443935583626383"><ele>611.4285714285713</ele><time>2026-05-02T12:06:08Z</time></trkpt><trkpt lat="45.78693763164205" lon="11.443840010477322"><ele>617.7142857142858</ele><time>2026-05-02T12:06:09Z</time></trkpt><trkpt lat="45.786927566199594" lon="11.443733118154807"><ele>624.0</ele><time>2026-05-02T12:06:10Z</time></trkpt><trkpt lat="45.78694835690975" lon="11.443592925025058"><ele>624.0</ele><time>2026-05-02T12:06:12Z</time></trkpt><trkpt lat="45.787001607299324" lon="11.443454662267131"><ele>624.0</ele><time>2026-05-02T12:06:14Z</time></trkpt><trkpt lat="45.78703795703604" lon="11.443296295413239"><ele>624.0</ele><time>2026-05-02T12:06:16Z</time></trkpt><trkpt lat="45.787043301326015" lon="11.443137793650877"><ele>624.0</ele><time>2026-05-02T12:06:18Z</time></trkpt><trkpt lat="45.78707046532881" lon="11.442978770057557"><ele>619.4</ele><time>2026-05-02T12:06:20Z</time></trkpt><trkpt lat="45.787139471420566" lon="11.442936603094749"><ele>614.8</ele><time>2026-05-02T12:06:22Z</time></trkpt><trkpt lat="45.78724658566412" lon="11.442962091645219"><ele>610.2</ele><time>2026-05-02T12:06:38Z</time></trkpt><trkpt lat="45.78738170225863" lon="11.442948450159237"><ele>605.6</ele><time>2026-05-02T12:06:40Z</time></trkpt><trkpt lat="45.78747237419478" lon="11.442945485768178"><ele>601.0</ele><time>2026-05-02T12:06:41Z</time></trkpt><trkpt lat="45.787554904013184" lon="11.442942069459903"><ele>601.0</ele><time>2026-05-02T12:06:42Z</time></trkpt><trkpt lat="45.78763788194783" lon="11.44293728328173"><ele>601.0</ele><time>2026-05-02T12:06:43Z</time></trkpt><trkpt lat="45.78771533152412" lon="11.442933233291646"><ele>601.0</ele><time>2026-05-02T12:06:44Z</time></trkpt><trkpt lat="45.787777956414864" lon="11.44292057503009"><ele>601.0</ele><time>2026-05-02T12:06:45Z</time></trkpt><trkpt lat="45.78789981629749" lon="11.442895554182078"><ele>601.0</ele><time>2026-05-02T12:06:47Z</time></trkpt><trkpt lat="45.788000342922054" lon="11.442853764905575"><ele>603.0</ele><time>2026-05-02T12:06:49Z</time></trkpt><trkpt lat="45.78807790192383" lon="11.442813332750644"><ele>605.0</ele><time>2026-05-02T12:06:51Z</time></trkpt><trkpt lat="45.78814190374914" lon="11.44273564707974"><ele>607.0</ele><time>2026-05-02T12:06:53Z</time></trkpt><trkpt lat="45.78820247611934" lon="11.442693088320311"><ele>609.0</ele><time>2026-05-02T12:06:55Z</time></trkpt><trkpt lat="45.788281844609955" lon="11.442656534104307"><ele>611.0</ele><time>2026-05-02T12:06:57Z</time></trkpt><trkpt lat="45.788382105864265" lon="11.442644352803915"><ele>613.0</ele><time>2026-05-02T12:06:59Z</time></trkpt><trkpt lat="45.78848285044347" lon="11.442663282585807"><ele>615.6</ele><time>2026-05-02T12:07:00.999Z</time></trkpt><trkpt lat="45.78858693022884" lon="11.442684556911276"><ele>618.1999999999999</ele><time>2026-05-02T12:07:02.999Z</time></trkpt><trkpt lat="45.7886918969575" lon="11.442696658163023"><ele>620.8</ele><time>2026-05-02T12:07:04.999Z</time></trkpt><trkpt lat="45.78878573074388" lon="11.442691296318225"><ele>623.4</ele><time>2026-05-02T12:07:06.999Z</time></trkpt><trkpt lat="45.78886534652043" lon="11.442685950397811"><ele>626.0</ele><time>2026-05-02T12:07:08.999Z</time></trkpt><trkpt lat="45.788943297575756" lon="11.442690524926356"><ele>626.0</ele><time>2026-05-02T12:07:11.999Z</time></trkpt><trkpt lat="45.78900502464281" lon="11.442763046648087"><ele>626.0</ele><time>2026-05-02T12:07:13.999Z</time></trkpt><trkpt lat="45.78905963707105" lon="11.442810101256727"><ele>626.0</ele><time>2026-05-02T12:07:15.999Z</time></trkpt><trkpt lat="45.78913849438955" lon="11.442806623216297"><ele>626.0</ele><time>2026-05-02T12:07:18.999Z</time></trkpt><trkpt lat="45.78920348761919" lon="11.442744968908872"><ele>626.0</ele><time>2026-05-02T12:07:21.999Z</time></trkpt><trkpt lat="45.789267840888996" lon="11.442778098290885"><ele>626.0</ele><time>2026-05-02T12:07:23.999Z</time></trkpt><trkpt lat="45.789317930666314" lon="11.442717429727418"><ele>626.0</ele><time>2026-05-02T12:07:49Z</time></trkpt><trkpt lat="45.78938849362644" lon="11.442655521132796"><ele>628.5</ele><time>2026-05-02T12:07:51Z</time></trkpt><trkpt lat="45.78941180603018" lon="11.442565209886508"><ele>631.0</ele><time>2026-05-02T12:07:53Z</time></trkpt><trkpt lat="45.78946538532013" lon="11.442498777929817"><ele>633.5</ele><time>2026-05-02T12:07:55Z</time></trkpt><trkpt lat="45.78952875774991" lon="11.442427007704717"><ele>636.0</ele><time>2026-05-02T12:07:59Z</time></trkpt><trkpt lat="45.789588937153695" lon="11.442348473131025"><ele>638.5</ele><time>2026-05-02T12:08:01Z</time></trkpt><trkpt lat="45.78964276433688" lon="11.442218319420206"><ele>641.0</ele><time>2026-05-02T12:08:04Z</time></trkpt><trkpt lat="45.78968163484572" lon="11.442117070188432"><ele>641.0</ele><time>2026-05-02T12:08:06Z</time></trkpt><trkpt lat="45.78961730884752" lon="11.441921173926234"><ele>641.0</ele><time>2026-05-02T12:08:11Z</time></trkpt><trkpt lat="45.78961975228663" lon="11.441811510453446"><ele>641.0</ele><time>2026-05-02T12:08:13Z</time></trkpt><trkpt lat="45.78959988282617" lon="11.441687476340018"><ele>641.0</ele><time>2026-05-02T12:08:16Z</time></trkpt><trkpt lat="45.78959925751821" lon="11.44158720802146"><ele>641.0</ele><time>2026-05-02T12:08:18Z</time></trkpt><trkpt lat="45.78967094963645" lon="11.441508919796252"><ele>641.0</ele><time>2026-05-02T12:08:21Z</time></trkpt><trkpt lat="45.78970884245783" lon="11.441408567508812"><ele>641.0</ele><time>2026-05-02T12:08:24Z</time></trkpt><trkpt lat="45.78976999183033" lon="11.441324040998277"><ele>641.0</ele><time>2026-05-02T12:08:27Z</time></trkpt><trkpt lat="45.78983754761934" lon="11.441224211401686"><ele>641.0</ele><time>2026-05-02T12:08:30Z</time></trkpt><trkpt lat="45.7899019698397" lon="11.44117946850785"><ele>641.0</ele><time>2026-05-02T12:08:31Z</time></trkpt><trkpt lat="45.78998534704707" lon="11.441161124269172"><ele>641.0</ele><time>2026-05-02T12:08:50Z</time></trkpt><trkpt lat="45.79006202201262" lon="11.441166486795524"><ele>642.2857142857143</ele><time>2026-05-02T12:08:56Z</time></trkpt><trkpt lat="45.79010260057579" lon="11.441063613984204"><ele>643.5714285714286</ele><time>2026-05-02T12:08:59Z</time></trkpt><trkpt lat="45.79015113636201" lon="11.440970722723058"><ele>644.8571428571429</ele><time>2026-05-02T12:09:02Z</time></trkpt><trkpt lat="45.79019094915845" lon="11.440894690707328"><ele>646.1428571428571</ele><time>2026-05-02T12:09:04Z</time></trkpt><trkpt lat="45.79024661577062" lon="11.440815955241282"><ele>647.4285714285714</ele><time>2026-05-02T12:09:07Z</time></trkpt><trkpt lat="45.79029871644192" lon="11.440750129519206"><ele>648.7142857142857</ele><time>2026-05-02T12:09:10Z</time></trkpt><trkpt lat="45.79034566644727" lon="11.440685195778995"><ele>650.0</ele><time>2026-05-02T12:09:12.999Z</time></trkpt><trkpt lat="45.790408269102386" lon="11.440629854934564"><ele>650.0</ele><time>2026-05-02T12:09:14.999Z</time></trkpt><trkpt lat="45.790468357059574" lon="11.440549088560463"><ele>650.0</ele><time>2026-05-02T12:09:17.999Z</time></trkpt><trkpt lat="45.790525941727154" lon="11.44051166217569"><ele>650.0</ele><time>2026-05-02T12:09:20.999Z</time></trkpt><trkpt lat="45.790617292385456" lon="11.44047588966952"><ele>650.0</ele><time>2026-05-02T12:09:23.999Z</time></trkpt><trkpt lat="45.790694130751035" lon="11.440445185411962"><ele>650.0</ele><time>2026-05-02T12:09:25.999Z</time></trkpt><trkpt lat="45.790762538384435" lon="11.440424566181104"><ele>650.0</ele><time>2026-05-02T12:09:27.999Z</time></trkpt><trkpt lat="45.790825735864416" lon="11.44038291141724"><ele>646.6666666666666</ele><time>2026-05-02T12:09:30.999Z</time></trkpt><trkpt lat="45.79090181399617" lon="11.440366575456496"><ele>643.3333333333333</ele><time>2026-05-02T12:09:33.999Z</time></trkpt><trkpt lat="45.79096044528575" lon="11.440316485794515"><ele>640.0</ele><time>2026-05-02T12:09:36.999Z</time></trkpt><trkpt lat="45.791039854101555" lon="11.440318666144366"><ele>636.6666666666666</ele><time>2026-05-02T12:09:39Z</time></trkpt><trkpt lat="45.79110758445605" lon="11.44031010931959"><ele>633.3333333333334</ele><time>2026-05-02T12:09:41Z</time></trkpt><trkpt lat="45.79123524479425" lon="11.440289579455172"><ele>630.0</ele><time>2026-05-02T12:09:43Z</time></trkpt><trkpt lat="45.7913274132997" lon="11.44031939788803"><ele>630.0</ele><time>2026-05-02T12:09:46Z</time></trkpt><trkpt lat="45.79139026821328" lon="11.440335675226343"><ele>630.0</ele><time>2026-05-02T12:09:48Z</time></trkpt><trkpt lat="45.79145261304222" lon="11.440312322427715"><ele>630.0</ele><time>2026-05-02T12:09:51Z</time></trkpt><trkpt lat="45.79154916320372" lon="11.440273123722525"><ele>630.0</ele><time>2026-05-02T12:09:53Z</time></trkpt><trkpt lat="45.79162539180122" lon="11.44028174323056"><ele>630.0</ele><time>2026-05-02T12:09:58Z</time></trkpt><trkpt lat="45.79168307675926" lon="11.440220059760666"><ele>630.0</ele><time>2026-05-02T12:14:00Z</time></trkpt><trkpt lat="45.7916954112902" lon="11.440114471238587"><ele>630.0</ele><time>2026-05-02T12:14:07Z</time></trkpt><trkpt lat="45.791734810780035" lon="11.440020547525313"><ele>630.0</ele><time>2026-05-02T12:14:10Z</time></trkpt><trkpt lat="45.79180999167104" lon="11.43998714208326"><ele>630.0</ele><time>2026-05-02T12:14:13Z</time></trkpt><trkpt lat="45.79192499879499" lon="11.439969314166026"><ele>630.0</ele><time>2026-05-02T12:14:19Z</time></trkpt><trkpt lat="45.792016466392795" lon="11.439912058810672"><ele>630.0</ele><time>2026-05-02T12:14:26Z</time></trkpt><trkpt lat="45.7920732771648" lon="11.439871569099038"><ele>630.0</ele><time>2026-05-02T12:14:31Z</time></trkpt><trkpt lat="45.792129485970264" lon="11.439828810362577"><ele>632.5714285714286</ele><time>2026-05-02T12:14:47Z</time></trkpt><trkpt lat="45.79216809690141" lon="11.43975423671516"><ele>635.1428571428571</ele><time>2026-05-02T12:15:31Z</time></trkpt><trkpt lat="45.79224501271042" lon="11.439785171545092"><ele>637.7142857142858</ele><time>2026-05-02T12:15:36.999Z</time></trkpt><trkpt lat="45.7922883252572" lon="11.439853874901319"><ele>640.2857142857142</ele><time>2026-05-02T12:15:41.999Z</time></trkpt><trkpt lat="45.79235538883806" lon="11.439920943946614"><ele>642.8571428571429</ele><time>2026-05-02T12:15:46.999Z</time></trkpt><trkpt lat="45.792407689603635" lon="11.439984610339907"><ele>645.4285714285714</ele><time>2026-05-02T12:15:55Z</time></trkpt><trkpt lat="45.79246020390903" lon="11.440039165360812"><ele>648.0</ele><time>2026-05-02T12:16:06Z</time></trkpt><trkpt lat="45.79253791909192" lon="11.440033078204031"><ele>654.0</ele><time>2026-05-02T12:16:10Z</time></trkpt><trkpt lat="45.79268583223585" lon="11.440056783273556"><ele>660.0</ele><time>2026-05-02T12:16:36Z</time></trkpt><trkpt lat="45.7927703516126" lon="11.440052706172008"><ele>666.0</ele><time>2026-05-02T12:16:41Z</time></trkpt><trkpt lat="45.792834846699215" lon="11.440101021376714"><ele>672.0</ele><time>2026-05-02T12:16:44Z</time></trkpt><trkpt lat="45.79289524663305" lon="11.440139096904115"><ele>678.0</ele><time>2026-05-02T12:16:52Z</time></trkpt><trkpt lat="45.792962685306186" lon="11.44017358545426"><ele>684.0</ele><time>2026-05-02T12:17:01Z</time></trkpt><trkpt lat="45.7929656569505" lon="11.440271854355426"><ele>683.9999999999999</ele><time>2026-05-02T12:17:08Z</time></trkpt><trkpt lat="45.79295060357534" lon="11.440361291870724"><ele>684.0</ele><time>2026-05-02T12:17:12Z</time></trkpt><trkpt lat="45.79300385952793" lon="11.440415051781677"><ele>684.0</ele><time>2026-05-02T12:17:19Z</time></trkpt><trkpt lat="45.79303084615803" lon="11.44050186084464"><ele>684.0</ele><time>2026-05-02T12:17:46Z</time></trkpt><trkpt lat="45.79310398777399" lon="11.44053826837531"><ele>684.0</ele><time>2026-05-02T12:17:48.999Z</time></trkpt><trkpt lat="45.79316588092078" lon="11.440571803324836"><ele>683.9999999999999</ele><time>2026-05-02T12:17:50.999Z</time></trkpt><trkpt lat="45.79323352631523" lon="11.440580818602237"><ele>684.0</ele><time>2026-05-02T12:18:02Z</time></trkpt><trkpt lat="45.793320065608434" lon="11.44056770019265"><ele>684.8571428571428</ele><time>2026-05-02T12:18:24Z</time></trkpt><trkpt lat="45.7933540104979" lon="11.440645940116836"><ele>685.7142857142857</ele><time>2026-05-02T12:18:44Z</time></trkpt><trkpt lat="45.79340123212007" lon="11.440726987494205"><ele>686.5714285714286</ele><time>2026-05-02T12:18:50Z</time></trkpt><trkpt lat="45.79344762384044" lon="11.440792184562222"><ele>687.4285714285713</ele><time>2026-05-02T12:19:14Z</time></trkpt><trkpt lat="45.7935117563145" lon="11.44078201012573"><ele>688.2857142857142</ele><time>2026-05-02T12:19:21Z</time></trkpt><trkpt lat="45.793600361869586" lon="11.44082593860932"><ele>689.1428571428571</ele><time>2026-05-02T12:19:31Z</time></trkpt><trkpt lat="45.79361451815521" lon="11.44092775651587"><ele>690.0</ele><time>2026-05-02T12:19:44Z</time></trkpt><trkpt lat="45.79363534788766" lon="11.441016888550006"><ele>694.5714285714286</ele><time>2026-05-02T12:19:52.999Z</time></trkpt><trkpt lat="45.793658961880304" lon="11.441115982728977"><ele>699.1428571428571</ele><time>2026-05-02T12:20:10Z</time></trkpt><trkpt lat="45.79371710256528" lon="11.441177276897413"><ele>703.7142857142858</ele><time>2026-05-02T12:20:17Z</time></trkpt><trkpt lat="45.79378234196884" lon="11.441187830011465"><ele>708.2857142857142</ele><time>2026-05-02T12:20:22Z</time></trkpt><trkpt lat="45.79384025523453" lon="11.441246669890099"><ele>712.8571428571428</ele><time>2026-05-02T12:20:52Z</time></trkpt><trkpt lat="45.793791869418946" lon="11.441311115865618"><ele>717.4285714285714</ele><time>2026-05-02T12:20:59Z</time></trkpt><trkpt lat="45.79381320822417" lon="11.441397357705632"><ele>722.0</ele><time>2026-05-02T12:21:08Z</time></trkpt><trkpt lat="45.79385539157027" lon="11.441475492466648"><ele>723.5714285714286</ele><time>2026-05-02T12:21:45Z</time></trkpt><trkpt lat="45.793913762256196" lon="11.441539301335418"><ele>725.1428571428571</ele><time>2026-05-02T12:21:57Z</time></trkpt><trkpt lat="45.79386550093893" lon="11.441600988438513"><ele>726.7142857142857</ele><time>2026-05-02T12:22:28Z</time></trkpt><trkpt lat="45.793879454196514" lon="11.44168939354633"><ele>728.2857142857142</ele><time>2026-05-02T12:23:42Z</time></trkpt><trkpt lat="45.7939453809528" lon="11.441702305755017"><ele>729.8571428571429</ele><time>2026-05-02T12:24:57Z</time></trkpt><trkpt lat="45.7940152649228" lon="11.441793669524133"><ele>731.4285714285713</ele><time>2026-05-02T12:25:25Z</time></trkpt><trkpt lat="45.794006086785146" lon="11.441910725115678"><ele>733.0</ele><time>2026-05-02T12:26:22.999Z</time></trkpt><trkpt lat="45.79407003411837" lon="11.44196732800212"><ele>733.0</ele><time>2026-05-02T12:26:33Z</time></trkpt><trkpt lat="45.7941333282817" lon="11.442039419138068"><ele>733.0</ele><time>2026-05-02T12:26:37Z</time></trkpt><trkpt lat="45.794182350444125" lon="11.442191918830705"><ele>733.0</ele><time>2026-05-02T12:27:21Z</time></trkpt><trkpt lat="45.794233037322876" lon="11.442262788187092"><ele>733.0</ele><time>2026-05-02T12:28:02Z</time></trkpt><trkpt lat="45.79427186757812" lon="11.442190372353041"><ele>733.0</ele><time>2026-05-02T12:28:44Z</time></trkpt><trkpt lat="45.79435505295465" lon="11.44212549450644"><ele>733.0</ele><time>2026-05-02T12:30:12Z</time></trkpt><trkpt lat="45.79442560252068" lon="11.442113951174406"><ele>742.0</ele><time>2026-05-02T12:31:10Z</time></trkpt><trkpt lat="45.79445372298122" lon="11.442198607536723"><ele>751.0</ele><time>2026-05-02T12:31:20Z</time></trkpt><trkpt lat="45.794428047886655" lon="11.442343712192631"><ele>760.0</ele><time>2026-05-02T12:35:36Z</time></trkpt><trkpt lat="45.79450378728095" lon="11.442292335088876"><ele>769.0</ele><time>2026-05-02T12:35:40Z</time></trkpt><trkpt lat="45.794578155151065" lon="11.442247575854289"><ele>777.9999999999999</ele><time>2026-05-02T12:35:42Z</time></trkpt><trkpt lat="45.79466253511667" lon="11.442196947336416"><ele>787.0</ele><time>2026-05-02T12:35:44Z</time></trkpt><trkpt lat="45.794747853236714" lon="11.442140189238962"><ele>786.9999999999999</ele><time>2026-05-02T12:35:46Z</time></trkpt><trkpt lat="45.79481564220729" lon="11.442060549365696"><ele>787.0</ele><time>2026-05-02T12:35:48Z</time></trkpt><trkpt lat="45.794877997375046" lon="11.441985571869235"><ele>787.0</ele><time>2026-05-02T12:35:50Z</time></trkpt><trkpt lat="45.794933112222644" lon="11.441916818257942"><ele>787.0</ele><time>2026-05-02T12:35:52Z</time></trkpt><trkpt lat="45.79494189100499" lon="11.442057329393291"><ele>786.9999999999999</ele><time>2026-05-02T12:36:18Z</time></trkpt><trkpt lat="45.794912226241564" lon="11.442163141013044"><ele>787.0</ele><time>2026-05-02T12:36:21Z</time></trkpt><trkpt lat="45.79490606774887" lon="11.442275057826695"><ele>787.0</ele><time>2026-05-02T12:36:24Z</time></trkpt><trkpt lat="45.794951972818325" lon="11.44219817716445"><ele>787.0</ele><time>2026-05-02T12:36:37Z</time></trkpt><trkpt lat="45.79501497040928" lon="11.442118793926797"><ele>787.0</ele><time>2026-05-02T12:36:39Z</time></trkpt><trkpt lat="45.79502306397468" lon="11.442218049518665"><ele>787.0</ele><time>2026-05-02T12:36:46.999Z</time></trkpt><trkpt lat="45.79502543942041" lon="11.442322755743264"><ele>787.0</ele><time>2026-05-02T12:36:48.999Z</time></trkpt><trkpt lat="45.79504048394134" lon="11.442419445975146"><ele>787.0</ele><time>2026-05-02T12:36:50.999Z</time></trkpt><trkpt lat="45.79504571103346" lon="11.442520109435776"><ele>787.0</ele><time>2026-05-02T12:36:53Z</time></trkpt><trkpt lat="45.79503328298315" lon="11.442634305485866"><ele>786.9999999999999</ele><time>2026-05-02T12:36:55Z</time></trkpt><trkpt lat="45.795093767965184" lon="11.442710159989621"><ele>787.0</ele><time>2026-05-02T12:37:12Z</time></trkpt><trkpt lat="45.79512738046629" lon="11.442814369641921"><ele>787.0</ele><time>2026-05-02T12:37:32Z</time></trkpt><trkpt lat="45.795170617504866" lon="11.442920977896785"><ele>787.0</ele><time>2026-05-02T12:37:35Z</time></trkpt><trkpt lat="45.79518223733874" lon="11.443027974386233"><ele>786.9999999999999</ele><time>2026-05-02T12:37:40Z</time></trkpt><trkpt lat="45.79520491610736" lon="11.4431324389033"><ele>787.0</ele><time>2026-05-02T12:37:54Z</time></trkpt><trkpt lat="45.79527485878566" lon="11.44302155576728"><ele>795.0</ele><time>2026-05-02T12:38:32Z</time></trkpt><trkpt lat="45.79526288077863" lon="11.442922910681695"><ele>803.0</ele><time>2026-05-02T12:38:35Z</time></trkpt><trkpt lat="45.79527105504211" lon="11.442812389330275"><ele>811.0</ele><time>2026-05-02T12:38:39Z</time></trkpt><trkpt lat="45.79530404194692" lon="11.442891655826301"><ele>819.0</ele><time>2026-05-02T12:38:55Z</time></trkpt><trkpt lat="45.79532009066344" lon="11.442794106644664"><ele>827.0</ele><time>2026-05-02T12:39:03Z</time></trkpt><trkpt lat="45.79533174009528" lon="11.44270472595482"><ele>835.0</ele><time>2026-05-02T12:39:06Z</time></trkpt><trkpt lat="45.79533659501722" lon="11.442816899549554"><ele>843.0</ele><time>2026-05-02T12:39:16Z</time></trkpt><trkpt lat="45.79536273405918" lon="11.442912807387653"><ele>843.0</ele><time>2026-05-02T12:39:20Z</time></trkpt><trkpt lat="45.79536090243035" lon="11.44301032538013"><ele>843.0</ele><time>2026-05-02T12:39:24Z</time></trkpt><trkpt lat="45.79538785508405" lon="11.443100096666011"><ele>843.0</ele><time>2026-05-02T12:39:29Z</time></trkpt><trkpt lat="45.795417202472386" lon="11.443019593190586"><ele>843.0</ele><time>2026-05-02T12:39:34Z</time></trkpt><trkpt lat="45.795445179947905" lon="11.442917707708053"><ele>843.0</ele><time>2026-05-02T12:39:38Z</time></trkpt><trkpt lat="45.79546164217313" lon="11.4428244988961"><ele>843.0</ele><time>2026-05-02T12:39:43Z</time></trkpt><trkpt lat="45.79547714566536" lon="11.442932877904035"><ele>843.0</ele><time>2026-05-02T12:39:55Z</time></trkpt><trkpt lat="45.795457914851426" lon="11.44303140145342"><ele>845.7142857142857</ele><time>2026-05-02T12:39:59Z</time></trkpt><trkpt lat="45.79549411184671" lon="11.44314762013229"><ele>848.4285714285713</ele><time>2026-05-02T12:40:02Z</time></trkpt><trkpt lat="45.79553982252478" lon="11.443231510672867"><ele>851.1428571428571</ele><time>2026-05-02T12:40:06Z</time></trkpt><trkpt lat="45.795555909658056" lon="11.443326639778073"><ele>853.8571428571429</ele><time>2026-05-02T12:40:10Z</time></trkpt><trkpt lat="45.79559720752688" lon="11.443413483654165"><ele>856.5714285714286</ele><time>2026-05-02T12:40:14Z</time></trkpt><trkpt lat="45.79563460555339" lon="11.443337527856494"><ele>859.2857142857143</ele><time>2026-05-02T12:40:25Z</time></trkpt><trkpt lat="45.79564142842304" lon="11.443241134795015"><ele>862.0</ele><time>2026-05-02T12:40:29Z</time></trkpt><trkpt lat="45.795688618181906" lon="11.44330091176729"><ele>862.0</ele><time>2026-05-02T12:40:39Z</time></trkpt><trkpt lat="45.79569357828679" lon="11.443399600996326"><ele>862.0</ele><time>2026-05-02T12:40:43Z</time></trkpt><trkpt lat="45.795715302463904" lon="11.443485595028376"><ele>862.0</ele><time>2026-05-02T12:40:46Z</time></trkpt><trkpt lat="45.795750727799366" lon="11.443586496032502"><ele>862.0</ele><time>2026-05-02T12:40:50Z</time></trkpt><trkpt lat="45.79577234017153" lon="11.443484682256331"><ele>862.0</ele><time>2026-05-02T12:40:57Z</time></trkpt><trkpt lat="45.795768638506345" lon="11.443591138713112"><ele>862.0</ele><time>2026-05-02T12:43:56Z</time></trkpt><trkpt lat="45.79573113984534" lon="11.443503111506086"><ele>862.0</ele><time>2026-05-02T12:44:11Z</time></trkpt><trkpt lat="45.79571070408495" lon="11.443402457897669"><ele>862.0</ele><time>2026-05-02T12:44:13Z</time></trkpt><trkpt lat="45.79568917334774" lon="11.443292715008281"><ele>862.0</ele><time>2026-05-02T12:44:16Z</time></trkpt><trkpt lat="45.79564630908519" lon="11.443360236710824"><ele>862.0</ele><time>2026-05-02T12:44:33Z</time></trkpt><trkpt lat="45.79564337039833" lon="11.443464010944574"><ele>862.0</ele><time>2026-05-02T12:44:37Z</time></trkpt><trkpt lat="45.795621203892026" lon="11.443358573366726"><ele>862.0</ele><time>2026-05-02T12:44:47Z</time></trkpt><trkpt lat="45.79557685017741" lon="11.443286899624253"><ele>862.0</ele><time>2026-05-02T12:44:50Z</time></trkpt><trkpt lat="45.795546282983715" lon="11.443202303894072"><ele>862.0</ele><time>2026-05-02T12:44:53Z</time></trkpt><trkpt lat="45.795528943458" lon="11.44310090852686"><ele>861.9999999999999</ele><time>2026-05-02T12:44:56Z</time></trkpt><trkpt lat="45.79551636362874" lon="11.442998619913189"><ele>862.0</ele><time>2026-05-02T12:44:58.999Z</time></trkpt><trkpt lat="45.79551518345433" lon="11.44288906794297"><ele>862.0</ele><time>2026-05-02T12:45:02.999Z</time></trkpt><trkpt lat="45.79546889600238" lon="11.44298561950418"><ele>862.0</ele><time>2026-05-02T12:45:17Z</time></trkpt><trkpt lat="45.795416074611914" lon="11.443057365533285"><ele>861.9999999999999</ele><time>2026-05-02T12:45:21Z</time></trkpt><trkpt lat="45.79538365867609" lon="11.442926213046928"><ele>862.0</ele><time>2026-05-02T12:45:36Z</time></trkpt><trkpt lat="45.79537745432995" lon="11.442805348247902"><ele>862.0</ele><time>2026-05-02T12:45:39Z</time></trkpt><trkpt lat="45.795309234187435" lon="11.442831865201962"><ele>862.0</ele><time>2026-05-02T12:45:53Z</time></trkpt><trkpt lat="45.79530472630672" lon="11.442922678764583"><ele>862.0</ele><time>2026-05-02T12:46:03Z</time></trkpt><trkpt lat="45.79532476439909" lon="11.442821017040721"><ele>862.0</ele><time>2026-05-02T12:46:09Z</time></trkpt><trkpt lat="45.79526591084534" lon="11.44287665957194"><ele>862.0</ele><time>2026-05-02T12:46:28Z</time></trkpt><trkpt lat="45.79523241407405" lon="11.442963090205676"><ele>862.0</ele><time>2026-05-02T12:46:32Z</time></trkpt><trkpt lat="45.79521903893479" lon="11.443057313253837"><ele>862.0</ele><time>2026-05-02T12:46:36Z</time></trkpt><trkpt lat="45.795200083220095" lon="11.442970781140614"><ele>858.8333333333333</ele><time>2026-05-02T12:46:49Z</time></trkpt><trkpt lat="45.79517610968953" lon="11.442870880625051"><ele>855.6666666666666</ele><time>2026-05-02T12:46:54Z</time></trkpt><trkpt lat="45.795153654431275" lon="11.442785186411543"><ele>852.5</ele><time>2026-05-02T12:47:10Z</time></trkpt><trkpt lat="45.79509063862712" lon="11.442740624962575"><ele>849.3333333333333</ele><time>2026-05-02T12:47:41Z</time></trkpt><trkpt lat="45.795092170148685" lon="11.442622387786804"><ele>846.1666666666666</ele><time>2026-05-02T12:47:46Z</time></trkpt><trkpt lat="45.7950792084099" lon="11.44251394436787"><ele>843.0</ele><time>2026-05-02T12:47:49Z</time></trkpt><trkpt lat="45.79507617128136" lon="11.442364159194874"><ele>833.6666666666666</ele><time>2026-05-02T12:47:52Z</time></trkpt><trkpt lat="45.79507394299859" lon="11.442267258746845"><ele>824.3333333333333</ele><time>2026-05-02T12:47:53Z</time></trkpt><trkpt lat="45.795072188061276" lon="11.442172127797106"><ele>815.0</ele><time>2026-05-02T12:47:57Z</time></trkpt><trkpt lat="45.79500106952476" lon="11.442229731337763"><ele>805.6666666666666</ele><time>2026-05-02T12:48:04Z</time></trkpt><trkpt lat="45.794949870033385" lon="11.442296954023627"><ele>796.3333333333333</ele><time>2026-05-02T12:48:09Z</time></trkpt><trkpt lat="45.79492744908613" lon="11.442167344962977"><ele>787.0</ele><time>2026-05-02T12:48:22Z</time></trkpt><trkpt lat="45.79494849073891" lon="11.442063682047229"><ele>786.9999999999999</ele><time>2026-05-02T12:48:25Z</time></trkpt><trkpt lat="45.79496772997835" lon="11.441977541327384"><ele>787.0</ele><time>2026-05-02T12:48:28Z</time></trkpt><trkpt lat="45.79489559900108" lon="11.442038798255078"><ele>787.0</ele><time>2026-05-02T12:48:40Z</time></trkpt><trkpt lat="45.794836547709195" lon="11.44208992827436"><ele>787.0</ele><time>2026-05-02T12:48:42Z</time></trkpt><trkpt lat="45.79476594243712" lon="11.442139738939042"><ele>786.9999999999999</ele><time>2026-05-02T12:48:44Z</time></trkpt><trkpt lat="45.79470082098164" lon="11.442189794267717"><ele>787.0</ele><time>2026-05-02T12:48:46Z</time></trkpt><trkpt lat="45.79461763668867" lon="11.442243657037425"><ele>787.0</ele><time>2026-05-02T12:48:49Z</time></trkpt><trkpt lat="45.79454726496748" lon="11.442267624004632"><ele>787.0</ele><time>2026-05-02T12:48:53Z</time></trkpt><trkpt lat="45.79449230767585" lon="11.442313144423126"><ele>787.0</ele><time>2026-05-02T12:48:59Z</time></trkpt><trkpt lat="45.79451524916145" lon="11.442222589414532"><ele>787.0</ele><time>2026-05-02T12:49:09Z</time></trkpt><trkpt lat="45.79455133615926" lon="11.442147574197891"><ele>787.0</ele><time>2026-05-02T12:49:12Z</time></trkpt><trkpt lat="45.79458885308386" lon="11.442029316959127"><ele>787.0</ele><time>2026-05-02T12:49:15Z</time></trkpt><trkpt lat="45.794630391356314" lon="11.44191289446075"><ele>787.0</ele><time>2026-05-02T12:49:18Z</time></trkpt><trkpt lat="45.79465023793612" lon="11.44180388897095"><ele>783.1666666666666</ele><time>2026-05-02T12:49:21Z</time></trkpt><trkpt lat="45.794695296628824" lon="11.441721117236874"><ele>779.3333333333333</ele><time>2026-05-02T12:49:23Z</time></trkpt><trkpt lat="45.79473669754239" lon="11.441604875692159"><ele>775.5</ele><time>2026-05-02T12:49:25Z</time></trkpt><trkpt lat="45.794768387261065" lon="11.44147687549855"><ele>771.6666666666666</ele><time>2026-05-02T12:49:27Z</time></trkpt><trkpt lat="45.7947828302138" lon="11.441357665366969"><ele>767.8333333333333</ele><time>2026-05-02T12:49:29Z</time></trkpt><trkpt lat="45.79475974458862" lon="11.441225601197615"><ele>764.0</ele><time>2026-05-02T12:49:31Z</time></trkpt><trkpt lat="45.794702841620996" lon="11.441082057492244"><ele>762.1666666666666</ele><time>2026-05-02T12:49:33Z</time></trkpt><trkpt lat="45.79465215541894" lon="11.440975110226542"><ele>760.3333333333333</ele><time>2026-05-02T12:49:35Z</time></trkpt><trkpt lat="45.794616558638786" lon="11.440889733488095"><ele>758.5</ele><time>2026-05-02T12:49:39Z</time></trkpt><trkpt lat="45.7945924377263" lon="11.440786619767062"><ele>756.6666666666666</ele><time>2026-05-02T12:49:50Z</time></trkpt><trkpt lat="45.79456671643198" lon="11.440698273767268"><ele>754.8333333333334</ele><time>2026-05-02T12:49:57Z</time></trkpt><trkpt lat="45.794522174810254" lon="11.440610947198076"><ele>753.0</ele><time>2026-05-02T12:50:00Z</time></trkpt><trkpt lat="45.79445311516767" lon="11.440509943935949"><ele>750.1666666666666</ele><time>2026-05-02T12:50:03Z</time></trkpt><trkpt lat="45.794406958921044" lon="11.44040781014436"><ele>747.3333333333334</ele><time>2026-05-02T12:50:06Z</time></trkpt><trkpt lat="45.79433328229495" lon="11.440338137158443"><ele>744.5</ele><time>2026-05-02T12:50:50Z</time></trkpt><trkpt lat="45.79426660293126" lon="11.440269126090094"><ele>741.6666666666667</ele><time>2026-05-02T12:50:53Z</time></trkpt><trkpt lat="45.794215351590644" lon="11.44016504704598"><ele>738.8333333333334</ele><time>2026-05-02T12:50:56Z</time></trkpt><trkpt lat="45.79415286336757" lon="11.440068173159224"><ele>736.0</ele><time>2026-05-02T12:50:59Z</time></trkpt><trkpt lat="45.794100683885226" lon="11.439982252750895"><ele>733.8333333333334</ele><time>2026-05-02T12:51:01Z</time></trkpt><trkpt lat="45.79405817147073" lon="11.43990799712533"><ele>731.6666666666667</ele><time>2026-05-02T12:51:04Z</time></trkpt><trkpt lat="45.79408611012602" lon="11.440044440405362"><ele>729.5</ele><time>2026-05-02T12:51:14Z</time></trkpt><trkpt lat="45.79404975873245" lon="11.440118968663416"><ele>727.3333333333334</ele><time>2026-05-02T12:51:19Z</time></trkpt><trkpt lat="45.79398475938238" lon="11.440073736327859"><ele>725.1666666666666</ele><time>2026-05-02T12:51:23Z</time></trkpt><trkpt lat="45.793906851330235" lon="11.439994389407156"><ele>723.0</ele><time>2026-05-02T12:51:26Z</time></trkpt><trkpt lat="45.793864203825706" lon="11.439904527286227"><ele>723.0</ele><time>2026-05-02T12:51:28Z</time></trkpt><trkpt lat="45.793816642486426" lon="11.439827090960861"><ele>723.0</ele><time>2026-05-02T12:51:30Z</time></trkpt><trkpt lat="45.793771446433404" lon="11.439758894561278"><ele>723.0</ele><time>2026-05-02T12:51:32Z</time></trkpt><trkpt lat="45.79371395927657" lon="11.439648218796163"><ele>723.0</ele><time>2026-05-02T12:51:35Z</time></trkpt><trkpt lat="45.79365407758874" lon="11.439555486596095"><ele>723.0</ele><time>2026-05-02T12:51:38Z</time></trkpt><trkpt lat="45.79360473919158" lon="11.439459559782312"><ele>723.0</ele><time>2026-05-02T12:51:41Z</time></trkpt><trkpt lat="45.793553431993885" lon="11.439552552570952"><ele>723.0</ele><time>2026-05-02T12:51:49Z</time></trkpt><trkpt lat="45.793544016556325" lon="11.439666264788745"><ele>723.0</ele><time>2026-05-02T12:51:51Z</time></trkpt><trkpt lat="45.79354896205496" lon="11.439767859603757"><ele>723.0</ele><time>2026-05-02T12:51:54Z</time></trkpt><trkpt lat="45.79356590406599" lon="11.439883252410779"><ele>723.0</ele><time>2026-05-02T12:51:57Z</time></trkpt><trkpt lat="45.79358951815998" lon="11.439974571288834"><ele>723.0</ele><time>2026-05-02T12:51:58Z</time></trkpt><trkpt lat="45.79360305691286" lon="11.440124585105814"><ele>723.0</ele><time>2026-05-02T12:51:59Z</time></trkpt><trkpt lat="45.7936445310071" lon="11.440237270858278"><ele>723.0</ele><time>2026-05-02T12:52:01Z</time></trkpt><trkpt lat="45.79356911785864" lon="11.440154480652213"><ele>723.0</ele><time>2026-05-02T12:52:10Z</time></trkpt><trkpt lat="45.79350400669052" lon="11.440086313324379"><ele>723.0</ele><time>2026-05-02T12:52:12Z</time></trkpt><trkpt lat="45.79343858135767" lon="11.439991606762055"><ele>723.0</ele><time>2026-05-02T12:52:14Z</time></trkpt><trkpt lat="45.793394973249015" lon="11.439919300694761"><ele>723.0</ele><time>2026-05-02T12:52:15Z</time></trkpt><trkpt lat="45.79332016302176" lon="11.439819925974156"><ele>723.0</ele><time>2026-05-02T12:52:17Z</time></trkpt><trkpt lat="45.79327693727231" lon="11.439719761408893"><ele>716.6666666666666</ele><time>2026-05-02T12:52:18Z</time></trkpt><trkpt lat="45.79321502376666" lon="11.439623927257852"><ele>710.3333333333334</ele><time>2026-05-02T12:52:21Z</time></trkpt><trkpt lat="45.79319839489786" lon="11.439752226062186"><ele>704.0</ele><time>2026-05-02T12:52:32Z</time></trkpt><trkpt lat="45.79326358884403" lon="11.439785413745543"><ele>697.6666666666667</ele><time>2026-05-02T12:52:33Z</time></trkpt><trkpt lat="45.79324165544179" lon="11.439882088779973"><ele>691.3333333333334</ele><time>2026-05-02T12:52:36Z</time></trkpt><trkpt lat="45.79317877814461" lon="11.439849590800577"><ele>685.0</ele><time>2026-05-02T12:52:42Z</time></trkpt><trkpt lat="45.79312556327984" lon="11.439781189821232"><ele>685.0</ele><time>2026-05-02T12:52:44Z</time></trkpt><trkpt lat="45.793025000767194" lon="11.43970074488821"><ele>685.0</ele><time>2026-05-02T12:52:46Z</time></trkpt><trkpt lat="45.792979730139216" lon="11.439634306267935"><ele>685.0</ele><time>2026-05-02T12:52:47Z</time></trkpt><trkpt lat="45.79292876426948" lon="11.439579774175385"><ele>685.0</ele><time>2026-05-02T12:52:48Z</time></trkpt><trkpt lat="45.79285721298885" lon="11.439468911205063"><ele>685.0</ele><time>2026-05-02T12:52:50Z</time></trkpt><trkpt lat="45.79282002684466" lon="11.439388939666687"><ele>685.0</ele><time>2026-05-02T12:52:51Z</time></trkpt><trkpt lat="45.79278876618256" lon="11.439292455529142"><ele>685.0</ele><time>2026-05-02T12:52:53Z</time></trkpt><trkpt lat="45.792799271595186" lon="11.439392682301087"><ele>685.0</ele><time>2026-05-02T12:53:05Z</time></trkpt><trkpt lat="45.79281034107737" lon="11.439490679820283"><ele>685.0</ele><time>2026-05-02T12:53:10Z</time></trkpt><trkpt lat="45.792752091836114" lon="11.43943551039012"><ele>685.0</ele><time>2026-05-02T12:53:18Z</time></trkpt><trkpt lat="45.7926927175995" lon="11.439353421930694"><ele>685.0</ele><time>2026-05-02T12:53:21Z</time></trkpt><trkpt lat="45.792658583295726" lon="11.439273857843219"><ele>685.0</ele><time>2026-05-02T12:53:23Z</time></trkpt><trkpt lat="45.79259613773007" lon="11.439213860238265"><ele>685.0</ele><time>2026-05-02T12:53:24Z</time></trkpt><trkpt lat="45.79253869586446" lon="11.439091003915115"><ele>678.1666666666667</ele><time>2026-05-02T12:53:26Z</time></trkpt><trkpt lat="45.792481105651134" lon="11.438974203940592"><ele>671.3333333333334</ele><time>2026-05-02T12:53:28Z</time></trkpt><trkpt lat="45.79242667379114" lon="11.438873818521444"><ele>664.5</ele><time>2026-05-02T12:53:30Z</time></trkpt><trkpt lat="45.792383996346636" lon="11.43879409368391"><ele>657.6666666666666</ele><time>2026-05-02T12:53:32Z</time></trkpt><trkpt lat="45.79234759040601" lon="11.43869343809443"><ele>650.8333333333333</ele><time>2026-05-02T12:53:41Z</time></trkpt><trkpt lat="45.79228203126221" lon="11.438635590438624"><ele>644.0</ele><time>2026-05-02T12:53:45Z</time></trkpt><trkpt lat="45.7922406410449" lon="11.438553948813821"><ele>644.0</ele><time>2026-05-02T12:53:48Z</time></trkpt><trkpt lat="45.79218794506006" lon="11.438430397005751"><ele>644.0</ele><time>2026-05-02T12:55:52Z</time></trkpt><trkpt lat="45.792221254020475" lon="11.438531021117036"><ele>644.0</ele><time>2026-05-02T12:56:05Z</time></trkpt><trkpt lat="45.79223877533249" lon="11.438622722488027"><ele>644.0</ele><time>2026-05-02T12:56:10Z</time></trkpt><trkpt lat="45.79226127034258" lon="11.438748655125872"><ele>644.0</ele><time>2026-05-02T12:56:14Z</time></trkpt><trkpt lat="45.79229516830937" lon="11.438850767839929"><ele>644.0</ele><time>2026-05-02T12:56:17Z</time></trkpt><trkpt lat="45.792353921065875" lon="11.438965784570875"><ele>643.6666666666666</ele><time>2026-05-02T12:56:35Z</time></trkpt><trkpt lat="45.79234152591901" lon="11.439070806606503"><ele>643.3333333333333</ele><time>2026-05-02T12:56:40Z</time></trkpt><trkpt lat="45.792331711855375" lon="11.439183674260027"><ele>643.0</ele><time>2026-05-02T12:56:43Z</time></trkpt><trkpt lat="45.79235975358004" lon="11.439294774611499"><ele>642.6666666666666</ele><time>2026-05-02T12:56:47Z</time></trkpt><trkpt lat="45.79230387775185" lon="11.439355124196043"><ele>642.3333333333334</ele><time>2026-05-02T12:56:52Z</time></trkpt><trkpt lat="45.79224827152099" lon="11.439432155022844"><ele>642.0</ele><time>2026-05-02T12:56:56Z</time></trkpt><trkpt lat="45.79221647004951" lon="11.439525168732402"><ele>641.9999999999999</ele><time>2026-05-02T12:57:00Z</time></trkpt><trkpt lat="45.79215771911097" lon="11.439574302526639"><ele>642.0</ele><time>2026-05-02T12:57:04Z</time></trkpt><trkpt lat="45.79209327850629" lon="11.43960289950855"><ele>642.0</ele><time>2026-05-02T12:57:16Z</time></trkpt><trkpt lat="45.79202475996365" lon="11.43957249733682"><ele>642.0</ele><time>2026-05-02T12:57:21Z</time></trkpt><trkpt lat="45.79197624824993" lon="11.43948671506967"><ele>642.0</ele><time>2026-05-02T12:57:25Z</time></trkpt><trkpt lat="45.791901239639216" lon="11.439450351415005"><ele>641.9999999999999</ele><time>2026-05-02T12:57:29Z</time></trkpt><trkpt lat="45.79182731379626" lon="11.439439543199745"><ele>642.0</ele><time>2026-05-02T12:57:33Z</time></trkpt><trkpt lat="45.79174386491326" lon="11.43942233117055"><ele>635.6666666666666</ele><time>2026-05-02T12:57:38Z</time></trkpt><trkpt lat="45.79167555948967" lon="11.439397060034263"><ele>629.3333333333334</ele><time>2026-05-02T12:57:41Z</time></trkpt><trkpt lat="45.791592622444455" lon="11.439331500670539"><ele>623.0</ele><time>2026-05-02T12:57:44Z</time></trkpt><trkpt lat="45.79151907564246" lon="11.43929543762429"><ele>616.6666666666667</ele><time>2026-05-02T12:57:47Z</time></trkpt><trkpt lat="45.79145567359081" lon="11.439227789661546"><ele>610.3333333333334</ele><time>2026-05-02T12:57:50Z</time></trkpt><trkpt lat="45.79138067825154" lon="11.439153706662681"><ele>604.0</ele><time>2026-05-02T12:57:54Z</time></trkpt><trkpt lat="45.79131746931954" lon="11.439082427789357"><ele>604.0</ele><time>2026-05-02T12:57:57Z</time></trkpt><trkpt lat="45.79126219840031" lon="11.439024649209223"><ele>604.0</ele><time>2026-05-02T12:58:00Z</time></trkpt><trkpt lat="45.79125386299819" lon="11.438917345160977"><ele>604.0</ele><time>2026-05-02T12:58:03Z</time></trkpt><trkpt lat="45.791190324950094" lon="11.43885368527852"><ele>604.0</ele><time>2026-05-02T12:58:06Z</time></trkpt><trkpt lat="45.79111961081344" lon="11.438798739172361"><ele>604.0</ele><time>2026-05-02T12:58:10Z</time></trkpt><trkpt lat="45.79105881172607" lon="11.438730657778068"><ele>604.0</ele><time>2026-05-02T12:58:13Z</time></trkpt><trkpt lat="45.79097810977466" lon="11.438703388297673"><ele>598.4285714285714</ele><time>2026-05-02T12:58:16Z</time></trkpt><trkpt lat="45.7909116467856" lon="11.43869865408671"><ele>592.8571428571429</ele><time>2026-05-02T12:58:18Z</time></trkpt><trkpt lat="45.790839081227254" lon="11.438649623036316"><ele>587.2857142857142</ele><time>2026-05-02T12:58:21Z</time></trkpt><trkpt lat="45.790773835694004" lon="11.438596665483924"><ele>581.7142857142858</ele><time>2026-05-02T12:58:24Z</time></trkpt><trkpt lat="45.79071125439146" lon="11.438656094800995"><ele>576.1428571428571</ele><time>2026-05-02T12:58:27Z</time></trkpt><trkpt lat="45.79065446926647" lon="11.438614283116438"><ele>570.5714285714286</ele><time>2026-05-02T12:58:30Z</time></trkpt><trkpt lat="45.790617764793964" lon="11.4386918093993"><ele>565.0</ele><time>2026-05-02T12:58:34Z</time></trkpt><trkpt lat="45.79054617617218" lon="11.438661119725865"><ele>565.0</ele><time>2026-05-02T12:58:43Z</time></trkpt><trkpt lat="45.790488547566305" lon="11.438582056223805"><ele>565.0</ele><time>2026-05-02T12:58:48Z</time></trkpt><trkpt lat="45.79043961323341" lon="11.43850501159741"><ele>565.0</ele><time>2026-05-02T12:58:51Z</time></trkpt><trkpt lat="45.79037076721851" lon="11.438459044719657"><ele>565.0</ele><time>2026-05-02T12:58:54Z</time></trkpt><trkpt lat="45.790311290458654" lon="11.438379377711538"><ele>565.0</ele><time>2026-05-02T12:58:57Z</time></trkpt><trkpt lat="45.79027859354775" lon="11.438283176835819"><ele>565.0</ele><time>2026-05-02T12:59:00Z</time></trkpt><trkpt lat="45.79023438782532" lon="11.438193818801759"><ele>561.1428571428571</ele><time>2026-05-02T12:59:03Z</time></trkpt><trkpt lat="45.79015864359468" lon="11.438152838412291"><ele>557.2857142857142</ele><time>2026-05-02T12:59:06Z</time></trkpt><trkpt lat="45.790086621722544" lon="11.438140878326857"><ele>553.4285714285714</ele><time>2026-05-02T12:59:09Z</time></trkpt><trkpt lat="45.79003133298478" lon="11.438091808018951"><ele>549.5714285714286</ele><time>2026-05-02T12:59:11Z</time></trkpt><trkpt lat="45.7899559743789" lon="11.438069501848247"><ele>545.7142857142858</ele><time>2026-05-02T12:59:15Z</time></trkpt><trkpt lat="45.78989458773806" lon="11.43803920057508"><ele>541.8571428571429</ele><time>2026-05-02T12:59:18Z</time></trkpt><trkpt lat="45.78982179829362" lon="11.438032338890572"><ele>538.0</ele><time>2026-05-02T12:59:27Z</time></trkpt><trkpt lat="45.789739485253975" lon="11.43797628435776"><ele>537.1428571428571</ele><time>2026-05-02T12:59:29Z</time></trkpt><trkpt lat="45.78967656437687" lon="11.437915091804062"><ele>536.2857142857143</ele><time>2026-05-02T12:59:31Z</time></trkpt><trkpt lat="45.78962218917653" lon="11.437832080640856"><ele>535.4285714285714</ele><time>2026-05-02T12:59:33Z</time></trkpt><trkpt lat="45.78957020828863" lon="11.437773546761996"><ele>534.5714285714286</ele><time>2026-05-02T12:59:35Z</time></trkpt><trkpt lat="45.78950906768533" lon="11.437709323068647"><ele>533.7142857142858</ele><time>2026-05-02T12:59:37Z</time></trkpt><trkpt lat="45.789462404093655" lon="11.437638944839494"><ele>532.8571428571429</ele><time>2026-05-02T12:59:39Z</time></trkpt><trkpt lat="45.7894161086176" lon="11.437572877816663"><ele>532.0</ele><time>2026-05-02T12:59:41Z</time></trkpt><trkpt lat="45.78936692004916" lon="11.43751214452485"><ele>526.3333333333334</ele><time>2026-05-02T12:59:43Z</time></trkpt><trkpt lat="45.78929209777011" lon="11.437460803943875"><ele>520.6666666666667</ele><time>2026-05-02T12:59:46Z</time></trkpt><trkpt lat="45.78922528079616" lon="11.437418347407455"><ele>515.0</ele><time>2026-05-02T12:59:48Z</time></trkpt><trkpt lat="45.7891571953776" lon="11.437374943645993"><ele>509.33333333333337</ele><time>2026-05-02T12:59:50Z</time></trkpt><trkpt lat="45.78908938495394" lon="11.437358422321534"><ele>503.6666666666667</ele><time>2026-05-02T12:59:52Z</time></trkpt><trkpt lat="45.78900708213967" lon="11.437320786915658"><ele>498.0</ele><time>2026-05-02T12:59:54Z</time></trkpt><trkpt lat="45.788938232722295" lon="11.437270290885559"><ele>498.0</ele><time>2026-05-02T12:59:56Z</time></trkpt><trkpt lat="45.7888740412316" lon="11.437222496254975"><ele>498.0</ele><time>2026-05-02T12:59:58Z</time></trkpt><trkpt lat="45.788812304867854" lon="11.437184630814777"><ele>498.0</ele><time>2026-05-02T13:00:00Z</time></trkpt><trkpt lat="45.788740864795784" lon="11.437146210325384"><ele>498.0</ele><time>2026-05-02T13:00:02Z</time></trkpt><trkpt lat="45.7886391605869" lon="11.437122847631919"><ele>498.0</ele><time>2026-05-02T13:00:04Z</time></trkpt><trkpt lat="45.78856112264259" lon="11.437109220374245"><ele>498.0</ele><time>2026-05-02T13:00:06Z</time></trkpt><trkpt lat="45.78847186476706" lon="11.43711361532633"><ele>493.4</ele><time>2026-05-02T13:00:08Z</time></trkpt><trkpt lat="45.788392235221266" lon="11.43717981082002"><ele>488.79999999999995</ele><time>2026-05-02T13:00:10Z</time></trkpt><trkpt lat="45.788331265554106" lon="11.437225386335715"><ele>484.2</ele><time>2026-05-02T13:00:12Z</time></trkpt><trkpt lat="45.788226255303805" lon="11.437233550215813"><ele>479.6</ele><time>2026-05-02T13:00:15Z</time></trkpt><trkpt lat="45.78812502789125" lon="11.437269643401736"><ele>475.0</ele><time>2026-05-02T13:00:17Z</time></trkpt><trkpt lat="45.78805307897137" lon="11.437322270160388"><ele>475.00000000000006</ele><time>2026-05-02T13:00:19Z</time></trkpt><trkpt lat="45.78798835952038" lon="11.437339665614255"><ele>475.0</ele><time>2026-05-02T13:00:21Z</time></trkpt><trkpt lat="45.78790491390136" lon="11.437370555718754"><ele>475.0</ele><time>2026-05-02T13:00:24Z</time></trkpt><trkpt lat="45.787835554875" lon="11.437333836961225"><ele>475.0</ele><time>2026-05-02T13:00:32Z</time></trkpt><trkpt lat="45.78786917700881" lon="11.437247852019166"><ele>475.00000000000006</ele><time>2026-05-02T13:00:35Z</time></trkpt><trkpt lat="45.78790317323531" lon="11.437140162184157"><ele>475.0</ele><time>2026-05-02T13:00:37Z</time></trkpt><trkpt lat="45.787827662047775" lon="11.437041843229334"><ele>473.1666666666667</ele><time>2026-05-02T13:00:39Z</time></trkpt><trkpt lat="45.78774166086142" lon="11.437002971825311"><ele>471.33333333333337</ele><time>2026-05-02T13:00:42Z</time></trkpt><trkpt lat="45.78761937644323" lon="11.436973063270377"><ele>469.5</ele><time>2026-05-02T13:00:44Z</time></trkpt><trkpt lat="45.78755036921603" lon="11.436937880140707"><ele>467.66666666666663</ele><time>2026-05-02T13:00:45Z</time></trkpt><trkpt lat="45.78749602881167" lon="11.436867749244758"><ele>465.8333333333333</ele><time>2026-05-02T13:00:46Z</time></trkpt><trkpt lat="45.78745014188985" lon="11.436800038070851"><ele>464.0</ele><time>2026-05-02T13:00:47Z</time></trkpt><trkpt lat="45.78738559443983" lon="11.436758184114426"><ele>460.3333333333333</ele><time>2026-05-02T13:00:48Z</time></trkpt><trkpt lat="45.78730910498306" lon="11.436717852209233"><ele>456.66666666666663</ele><time>2026-05-02T13:00:49Z</time></trkpt><trkpt lat="45.787239580045785" lon="11.436686702941866"><ele>453.0</ele><time>2026-05-02T13:00:50Z</time></trkpt><trkpt lat="45.78717128203054" lon="11.436659678439147"><ele>449.33333333333337</ele><time>2026-05-02T13:00:51Z</time></trkpt><trkpt lat="45.78709984472776" lon="11.436628282147874"><ele>445.6666666666667</ele><time>2026-05-02T13:00:52Z</time></trkpt><trkpt lat="45.78702973906265" lon="11.4365979969489"><ele>442.0</ele><time>2026-05-02T13:00:53Z</time></trkpt><trkpt lat="45.78692505324184" lon="11.436581668727802"><ele>437.6</ele><time>2026-05-02T13:00:55Z</time></trkpt><trkpt lat="45.78681596480137" lon="11.436575918208998"><ele>433.20000000000005</ele><time>2026-05-02T13:00:57Z</time></trkpt><trkpt lat="45.78670749079174" lon="11.436534094926367"><ele>428.8</ele><time>2026-05-02T13:00:59Z</time></trkpt><trkpt lat="45.78660949896977" lon="11.436481220666073"><ele>424.4</ele><time>2026-05-02T13:01:01Z</time></trkpt><trkpt lat="45.78658451797186" lon="11.436364127333281"><ele>420.0</ele><time>2026-05-02T13:01:04Z</time></trkpt><trkpt lat="45.786557391827785" lon="11.436268571877099"><ele>419.8333333333333</ele><time>2026-05-02T13:01:07Z</time></trkpt><trkpt lat="45.78653801304008" lon="11.436127180377538"><ele>419.66666666666663</ele><time>2026-05-02T13:01:11Z</time></trkpt><trkpt lat="45.786471270206384" lon="11.436034303930539"><ele>419.5</ele><time>2026-05-02T13:01:14Z</time></trkpt><trkpt lat="45.78639692373836" lon="11.435975354911806"><ele>419.3333333333333</ele><time>2026-05-02T13:01:17Z</time></trkpt><trkpt lat="45.786330438670284" lon="11.435920637883669"><ele>419.16666666666663</ele><time>2026-05-02T13:01:19Z</time></trkpt><trkpt lat="45.78629155503475" lon="11.435826596419426"><ele>419.0</ele><time>2026-05-02T13:01:23Z</time></trkpt><trkpt lat="45.78628488734327" lon="11.435705875224265"><ele>419.0</ele><time>2026-05-02T13:01:30Z</time></trkpt><trkpt lat="45.78632168980942" lon="11.435604226130126"><ele>419.0</ele><time>2026-05-02T13:01:32Z</time></trkpt><trkpt lat="45.786376719676824" lon="11.435470836174694"><ele>419.0</ele><time>2026-05-02T13:01:34Z</time></trkpt><trkpt lat="45.78639812578509" lon="11.435342573734612"><ele>419.0</ele><time>2026-05-02T13:01:36Z</time></trkpt><trkpt lat="45.78636798095013" lon="11.435220927017612"><ele>419.0</ele><time>2026-05-02T13:01:39Z</time></trkpt><trkpt lat="45.78634370465682" lon="11.43509596392452"><ele>418.66666666666663</ele><time>2026-05-02T13:01:43Z</time></trkpt><trkpt lat="45.78634375166171" lon="11.434958911742735"><ele>418.3333333333333</ele><time>2026-05-02T13:01:46Z</time></trkpt><trkpt lat="45.786332977476214" lon="11.434860122978696"><ele>418.0</ele><time>2026-05-02T13:01:49Z</time></trkpt><trkpt lat="45.78633107087583" lon="11.434735715027918"><ele>417.66666666666663</ele><time>2026-05-02T13:01:51Z</time></trkpt><trkpt lat="45.786324975753246" lon="11.434612758620629"><ele>417.3333333333333</ele><time>2026-05-02T13:01:53Z</time></trkpt><trkpt lat="45.786335346209334" lon="11.434498333842651"><ele>417.0</ele><time>2026-05-02T13:01:55Z</time></trkpt><trkpt lat="45.786337940606884" lon="11.434345759187972"><ele>417.0</ele><time>2026-05-02T13:01:57Z</time></trkpt><trkpt lat="45.78635310671304" lon="11.434217462818664"><ele>417.0</ele><time>2026-05-02T13:01:59Z</time></trkpt><trkpt lat="45.786342332127305" lon="11.434011099212032"><ele>417.0</ele><time>2026-05-02T13:02:00Z</time></trkpt><trkpt lat="45.78638279337882" lon="11.43386042522507"><ele>417.0</ele><time>2026-05-02T13:02:02Z</time></trkpt><trkpt lat="45.78640369625926" lon="11.433709305611467"><ele>414.40000000000003</ele><time>2026-05-02T13:02:04Z</time></trkpt><trkpt lat="45.78642662574187" lon="11.433562743173125"><ele>411.8</ele><time>2026-05-02T13:02:06Z</time></trkpt><trkpt lat="45.78642612884057" lon="11.4334333351088"><ele>409.2</ele><time>2026-05-02T13:02:08Z</time></trkpt><trkpt lat="45.78645704367929" lon="11.433304664301618"><ele>406.6</ele><time>2026-05-02T13:02:10Z</time></trkpt><trkpt lat="45.786474286542564" lon="11.433162442922017"><ele>404.0</ele><time>2026-05-02T13:02:12Z</time></trkpt><trkpt lat="45.786500987242086" lon="11.433035309211057"><ele>401.3333333333333</ele><time>2026-05-02T13:02:14Z</time></trkpt><trkpt lat="45.786502392055574" lon="11.432937025975464"><ele>398.66666666666663</ele><time>2026-05-02T13:02:17Z</time></trkpt><trkpt lat="45.786473869679526" lon="11.432854254076759"><ele>396.0</ele><time>2026-05-02T13:02:20Z</time></trkpt><trkpt lat="45.78648324087916" lon="11.432723219242309"><ele>393.33333333333337</ele><time>2026-05-02T13:02:22Z</time></trkpt><trkpt lat="45.78649629335727" lon="11.43260990344101"><ele>390.6666666666667</ele><time>2026-05-02T13:02:24Z</time></trkpt><trkpt lat="45.786501266030214" lon="11.432483237616152"><ele>388.0</ele><time>2026-05-02T13:02:27Z</time></trkpt><trkpt lat="45.7865152441323" lon="11.432360973785094"><ele>388.00000000000006</ele><time>2026-05-02T13:02:29Z</time></trkpt><trkpt lat="45.786492545749276" lon="11.432259484635118"><ele>388.0</ele><time>2026-05-02T13:02:33Z</time></trkpt><trkpt lat="45.78651190127541" lon="11.432163109856251"><ele>388.0</ele><time>2026-05-02T13:02:35Z</time></trkpt><trkpt lat="45.78648250539469" lon="11.432069874692589"><ele>388.0</ele><time>2026-05-02T13:02:38Z</time></trkpt><trkpt lat="45.78649728963979" lon="11.43193004743727"><ele>388.00000000000006</ele><time>2026-05-02T13:03:31Z</time></trkpt><trkpt lat="45.78645901423811" lon="11.431823199195296"><ele>388.0</ele><time>2026-05-02T13:03:35Z</time></trkpt><trkpt lat="45.78641831353475" lon="11.431704150693864"><ele>385.2</ele><time>2026-05-02T13:03:37Z</time></trkpt><trkpt lat="45.78639580478398" lon="11.431578523177775"><ele>382.4</ele><time>2026-05-02T13:03:39Z</time></trkpt><trkpt lat="45.786387772568865" lon="11.431480575942714"><ele>379.59999999999997</ele><time>2026-05-02T13:03:40Z</time></trkpt><trkpt lat="45.78637486739643" lon="11.431326074032606"><ele>376.79999999999995</ele><time>2026-05-02T13:03:42Z</time></trkpt><trkpt lat="45.786384689546665" lon="11.43120214017145"><ele>374.0</ele><time>2026-05-02T13:03:44Z</time></trkpt><trkpt lat="45.786446823047406" lon="11.431055172015434"><ele>373.33333333333337</ele><time>2026-05-02T13:03:46Z</time></trkpt><trkpt lat="45.786466270959714" lon="11.430968990303407"><ele>372.6666666666667</ele><time>2026-05-02T13:03:47Z</time></trkpt><trkpt lat="45.786463315686376" lon="11.430836075901409"><ele>372.0</ele><time>2026-05-02T13:03:48Z</time></trkpt><trkpt lat="45.786403013532805" lon="11.430719781901152"><ele>371.3333333333333</ele><time>2026-05-02T13:03:50Z</time></trkpt><trkpt lat="45.78630925315202" lon="11.430730383236696"><ele>370.66666666666663</ele><time>2026-05-02T13:03:52Z</time></trkpt><trkpt lat="45.78624305223372" lon="11.43070254267603"><ele>370.0</ele><time>2026-05-02T13:03:54Z</time></trkpt><trkpt lat="45.786228956728124" lon="11.43060359860859"><ele>370.0</ele><time>2026-05-02T13:03:57Z</time></trkpt><trkpt lat="45.78621467937205" lon="11.430498443290483"><ele>370.0</ele><time>2026-05-02T13:04:00Z</time></trkpt><trkpt lat="45.786199794028136" lon="11.430359433396536"><ele>370.0</ele><time>2026-05-02T13:04:03Z</time></trkpt><trkpt lat="45.7861747893812" lon="11.430238112841543"><ele>370.0</ele><time>2026-05-02T13:04:05Z</time></trkpt><trkpt lat="45.78616526938689" lon="11.430115051483776"><ele>370.0</ele><time>2026-05-02T13:04:07Z</time></trkpt><trkpt lat="45.786172168118014" lon="11.429983559791825"><ele>370.0</ele><time>2026-05-02T13:04:09Z</time></trkpt><trkpt lat="45.7861903100836" lon="11.429842606791516"><ele>369.8</ele><time>2026-05-02T13:04:11Z</time></trkpt><trkpt lat="45.786219817419145" lon="11.42969838953203"><ele>369.6</ele><time>2026-05-02T13:04:13Z</time></trkpt><trkpt lat="45.78625192040568" lon="11.429568976609154"><ele>369.4</ele><time>2026-05-02T13:04:15Z</time></trkpt><trkpt lat="45.786217404472005" lon="11.429394148946413"><ele>369.2</ele><time>2026-05-02T13:04:17Z</time></trkpt><trkpt lat="45.78616962849404" lon="11.429276297988125"><ele>369.0</ele><time>2026-05-02T13:04:19Z</time></trkpt><trkpt lat="45.78607911814502" lon="11.429198552987145"><ele>368.7142857142857</ele><time>2026-05-02T13:04:21Z</time></trkpt><trkpt lat="45.78603077364718" lon="11.429137178809974"><ele>368.42857142857144</ele><time>2026-05-02T13:04:22Z</time></trkpt><trkpt lat="45.78597279270895" lon="11.429080550105635"><ele>368.1428571428571</ele><time>2026-05-02T13:04:23Z</time></trkpt><trkpt lat="45.785922241194555" lon="11.429024734151534"><ele>367.8571428571429</ele><time>2026-05-02T13:04:24Z</time></trkpt><trkpt lat="45.78586447181667" lon="11.428966625653736"><ele>367.5714285714286</ele><time>2026-05-02T13:04:25Z</time></trkpt><trkpt lat="45.785814990060175" lon="11.428893916840549"><ele>367.2857142857143</ele><time>2026-05-02T13:04:26Z</time></trkpt><trkpt lat="45.785772273959125" lon="11.428818845606985"><ele>367.0</ele><time>2026-05-02T13:04:27Z</time></trkpt><trkpt lat="45.78574289265511" lon="11.428734353742668"><ele>361.40000000000003</ele><time>2026-05-02T13:04:28Z</time></trkpt><trkpt lat="45.78568637726238" lon="11.428577776360463"><ele>355.8</ele><time>2026-05-02T13:04:30Z</time></trkpt><trkpt lat="45.78564265884257" lon="11.42843222441745"><ele>350.2</ele><time>2026-05-02T13:04:32Z</time></trkpt><trkpt lat="45.78562286938076" lon="11.428297377094253"><ele>344.6</ele><time>2026-05-02T13:04:34Z</time></trkpt><trkpt lat="45.7856147648197" lon="11.428165105752727"><ele>339.0</ele><time>2026-05-02T13:04:36Z</time></trkpt><trkpt lat="45.78561062660025" lon="11.42799726761474"><ele>338.0</ele><time>2026-05-02T13:04:38Z</time></trkpt><trkpt lat="45.78561504411311" lon="11.427905317113757"><ele>337.0</ele><time>2026-05-02T13:04:39Z</time></trkpt><trkpt lat="45.78564240450859" lon="11.427802524834124"><ele>336.0</ele><time>2026-05-02T13:04:40Z</time></trkpt><trkpt lat="45.78566710767993" lon="11.427714263159443"><ele>335.0</ele><time>2026-05-02T13:04:41Z</time></trkpt><trkpt lat="45.78569370459095" lon="11.427611322778644"><ele>334.0</ele><time>2026-05-02T13:04:42Z</time></trkpt><trkpt lat="45.785710582156206" lon="11.427521609440186"><ele>333.0</ele><time>2026-05-02T13:04:43Z</time></trkpt><trkpt lat="45.78573250496134" lon="11.427435432771087"><ele>332.0</ele><time>2026-05-02T13:04:44Z</time></trkpt><trkpt lat="45.785753400829094" lon="11.427264886353113"><ele>330.0</ele><time>2026-05-02T13:04:46Z</time></trkpt><trkpt lat="45.78579180069455" lon="11.42710850505189"><ele>328.0</ele><time>2026-05-02T13:04:48Z</time></trkpt><trkpt lat="45.785827117111076" lon="11.42702666065977"><ele>326.0</ele><time>2026-05-02T13:04:49Z</time></trkpt><trkpt lat="45.78585660131863" lon="11.426943353127289"><ele>324.0</ele><time>2026-05-02T13:04:50Z</time></trkpt><trkpt lat="45.78592013264776" lon="11.426823545777168"><ele>322.0</ele><time>2026-05-02T13:04:52Z</time></trkpt><trkpt lat="45.78599782991064" lon="11.426730063375143"><ele>324.0</ele><time>2026-05-02T13:04:54Z</time></trkpt><trkpt lat="45.786108638428445" lon="11.42668545485974"><ele>326.0</ele><time>2026-05-02T13:04:56Z</time></trkpt><trkpt lat="45.786161027421734" lon="11.426598261049508"><ele>328.0</ele><time>2026-05-02T13:04:58Z</time></trkpt><trkpt lat="45.78617886653856" lon="11.426510476405335"><ele>330.0</ele><time>2026-05-02T13:04:59Z</time></trkpt><trkpt lat="45.78618400062818" lon="11.426359044635118"><ele>332.0</ele><time>2026-05-02T13:05:01Z</time></trkpt><trkpt lat="45.7861893813089" lon="11.42622438489998"><ele>332.0</ele><time>2026-05-02T13:05:03Z</time></trkpt><trkpt lat="45.78618587338184" lon="11.42607722127703"><ele>332.0</ele><time>2026-05-02T13:05:05Z</time></trkpt><trkpt lat="45.78619506491299" lon="11.425987220742643"><ele>332.0</ele><time>2026-05-02T13:05:06Z</time></trkpt><trkpt lat="45.78620204239895" lon="11.425840185464759"><ele>332.0</ele><time>2026-05-02T13:05:08Z</time></trkpt><trkpt lat="45.78624839342321" lon="11.425683941948837"><ele>332.0</ele><time>2026-05-02T13:05:10Z</time></trkpt><trkpt lat="45.78631172276896" lon="11.425574155304714"><ele>332.0</ele><time>2026-05-02T13:05:12Z</time></trkpt><trkpt lat="45.78637598854837" lon="11.425483770186602"><ele>332.0</ele><time>2026-05-02T13:05:14Z</time></trkpt><trkpt lat="45.786414825582725" lon="11.425411855393127"><ele>332.0</ele><time>2026-05-02T13:05:15Z</time></trkpt><trkpt lat="45.78652132604906" lon="11.425360358551705"><ele>332.0</ele><time>2026-05-02T13:05:17Z</time></trkpt><trkpt lat="45.78662590982341" lon="11.425294799360758"><ele>332.0</ele><time>2026-05-02T13:05:19Z</time></trkpt><trkpt lat="45.78672811529543" lon="11.42521659119696"><ele>330.6</ele><time>2026-05-02T13:05:21Z</time></trkpt><trkpt lat="45.78682121288028" lon="11.425176404077108"><ele>329.20000000000005</ele><time>2026-05-02T13:05:23Z</time></trkpt><trkpt lat="45.78691748099851" lon="11.42518890646349"><ele>327.8</ele><time>2026-05-02T13:05:25Z</time></trkpt><trkpt lat="45.78702098043728" lon="11.425221322432979"><ele>326.4</ele><time>2026-05-02T13:05:27Z</time></trkpt><trkpt lat="45.78709809330064" lon="11.425235276090001"><ele>325.0</ele><time>2026-05-02T13:05:29Z</time></trkpt><trkpt lat="45.787181102429656" lon="11.425264986340661"><ele>328.3333333333333</ele><time>2026-05-02T13:05:32Z</time></trkpt><trkpt lat="45.78724251260859" lon="11.425359167662261"><ele>331.66666666666663</ele><time>2026-05-02T13:05:41Z</time></trkpt><trkpt lat="45.78732767212989" lon="11.425482280500056"><ele>335.0</ele><time>2026-05-02T13:06:03Z</time></trkpt><trkpt lat="45.78737714749964" lon="11.425571580124425"><ele>338.3333333333333</ele><time>2026-05-02T13:06:09Z</time></trkpt><trkpt lat="45.787430561868746" lon="11.425645149532786"><ele>341.6666666666667</ele><time>2026-05-02T13:06:17Z</time></trkpt><trkpt lat="45.78748757137248" lon="11.425710213871497"><ele>345.0</ele><time>2026-05-02T13:06:21Z</time></trkpt><trkpt lat="45.78755705707235" lon="11.425754622809698"><ele>345.8571428571429</ele><time>2026-05-02T13:06:24Z</time></trkpt><trkpt lat="45.78762042549217" lon="11.425768952156535"><ele>346.7142857142857</ele><time>2026-05-02T13:06:28Z</time></trkpt><trkpt lat="45.78768412337871" lon="11.425776107881417"><ele>347.57142857142856</ele><time>2026-05-02T13:06:36Z</time></trkpt><trkpt lat="45.78778931398848" lon="11.425797327824217"><ele>348.42857142857144</ele><time>2026-05-02T13:06:46Z</time></trkpt><trkpt lat="45.787858335161374" lon="11.425781483138499"><ele>349.2857142857143</ele><time>2026-05-02T13:06:50Z</time></trkpt><trkpt lat="45.787928192635874" lon="11.425758499749621"><ele>350.14285714285717</ele><time>2026-05-02T13:06:55Z</time></trkpt><trkpt lat="45.787995832743746" lon="11.425749492204396"><ele>351.0</ele><time>2026-05-02T13:07:01Z</time></trkpt><trkpt lat="45.788055044235335" lon="11.425781844849741"><ele>354.28571428571433</ele><time>2026-05-02T13:07:12Z</time></trkpt><trkpt lat="45.78813327807908" lon="11.425820977868657"><ele>357.57142857142856</ele><time>2026-05-02T13:07:23Z</time></trkpt><trkpt lat="45.788192036118694" lon="11.425860178516785"><ele>360.8571428571429</ele><time>2026-05-02T13:07:28Z</time></trkpt><trkpt lat="45.7882406698017" lon="11.425918487085783"><ele>364.14285714285717</ele><time>2026-05-02T13:07:44Z</time></trkpt><trkpt lat="45.788289081689875" lon="11.425994181776222"><ele>367.42857142857144</ele><time>2026-05-02T13:09:44Z</time></trkpt><trkpt lat="45.78830237979287" lon="11.426085263289318"><ele>370.7142857142857</ele><time>2026-05-02T13:09:49Z</time></trkpt><trkpt lat="45.78831330919416" lon="11.426175646703454"><ele>374.0</ele><time>2026-05-02T13:09:58Z</time></trkpt><trkpt lat="45.78846547641249" lon="11.426242269317214"><ele>377.6666666666667</ele><time>2026-05-02T13:10:29Z</time></trkpt><trkpt lat="45.788550854245734" lon="11.426253225413944"><ele>381.33333333333337</ele><time>2026-05-02T13:11:04Z</time></trkpt><trkpt lat="45.78857381648433" lon="11.426348552884429"><ele>385.0</ele><time>2026-05-02T13:11:26Z</time></trkpt><trkpt lat="45.78862903562408" lon="11.426413237624473"><ele>388.6666666666667</ele><time>2026-05-02T13:11:43Z</time></trkpt><trkpt lat="45.78867936586006" lon="11.426472356263488"><ele>392.3333333333333</ele><time>2026-05-02T13:11:53Z</time></trkpt><trkpt lat="45.78872234993145" lon="11.42654708083492"><ele>396.0</ele><time>2026-05-02T13:12:00Z</time></trkpt><trkpt lat="45.788941472897754" lon="11.42655849386091"><ele>396.5</ele><time>2026-05-02T13:12:19Z</time></trkpt><trkpt lat="45.78900098707106" lon="11.426517443608272"><ele>397.0</ele><time>2026-05-02T13:12:27Z</time></trkpt><trkpt lat="45.78913030194531" lon="11.426531653561012"><ele>397.5</ele><time>2026-05-02T13:13:02Z</time></trkpt><trkpt lat="45.789178988607674" lon="11.426593095222993"><ele>398.0</ele><time>2026-05-02T13:13:18Z</time></trkpt><trkpt lat="45.7892714736149" lon="11.426643072564172"><ele>398.5</ele><time>2026-05-02T13:13:47Z</time></trkpt><trkpt lat="45.789344275261364" lon="11.426693707866242"><ele>399.0</ele><time>2026-05-02T13:13:51Z</time></trkpt><trkpt lat="45.78944618133627" lon="11.426698442574194"><ele>403.2</ele><time>2026-05-02T13:14:20Z</time></trkpt><trkpt lat="45.789514927577606" lon="11.42671519913792"><ele>407.4</ele><time>2026-05-02T13:15:01Z</time></trkpt><trkpt lat="45.789591910581116" lon="11.426750786730622"><ele>411.6</ele><time>2026-05-02T13:15:06Z</time></trkpt><trkpt lat="45.78974768227527" lon="11.426767258916248"><ele>415.8</ele><time>2026-05-02T13:15:16Z</time></trkpt><trkpt lat="45.789825410870705" lon="11.426827303137886"><ele>420.0</ele><time>2026-05-02T13:15:21Z</time></trkpt><trkpt lat="45.789883166116134" lon="11.426869607753972"><ele>420.0</ele><time>2026-05-02T13:15:23Z</time></trkpt><trkpt lat="45.78994523712109" lon="11.426922088922849"><ele>420.0</ele><time>2026-05-02T13:15:28Z</time></trkpt><trkpt lat="45.79002442458152" lon="11.42696070437278"><ele>420.0</ele><time>2026-05-02T13:15:38Z</time></trkpt><trkpt lat="45.79008983439751" lon="11.426956178649203"><ele>420.0</ele><time>2026-05-02T13:15:43Z</time></trkpt><trkpt lat="45.79016471633619" lon="11.426987342227298"><ele>420.0</ele><time>2026-05-02T13:15:47Z</time></trkpt><trkpt lat="45.79023456963947" lon="11.427004129289632"><ele>420.0</ele><time>2026-05-02T13:15:50Z</time></trkpt><trkpt lat="45.79042811899047" lon="11.427025960109907"><ele>422.8333333333333</ele><time>2026-05-02T13:16:01Z</time></trkpt><trkpt lat="45.7905166770871" lon="11.427028080505352"><ele>425.66666666666663</ele><time>2026-05-02T13:16:15Z</time></trkpt><trkpt lat="45.79057908554703" lon="11.42708099358261"><ele>428.5</ele><time>2026-05-02T13:16:20Z</time></trkpt><trkpt lat="45.790656589878296" lon="11.427123707348825"><ele>431.3333333333333</ele><time>2026-05-02T13:16:23Z</time></trkpt><trkpt lat="45.79071726950289" lon="11.427162991291612"><ele>434.16666666666663</ele><time>2026-05-02T13:16:25Z</time></trkpt><trkpt lat="45.79078109536914" lon="11.42720674945751"><ele>437.0</ele><time>2026-05-02T13:16:28Z</time></trkpt><trkpt lat="45.79082648071467" lon="11.427280157915815"><ele>438.0</ele><time>2026-05-02T13:16:32Z</time></trkpt><trkpt lat="45.79086581668008" lon="11.427372414467206"><ele>439.0</ele><time>2026-05-02T13:16:39Z</time></trkpt><trkpt lat="45.79083848229071" lon="11.42747242032687"><ele>440.0</ele><time>2026-05-02T13:16:43Z</time></trkpt><trkpt lat="45.79089075169998" lon="11.427530758682162"><ele>441.0</ele><time>2026-05-02T13:16:47Z</time></trkpt><trkpt lat="45.79095731875828" lon="11.427581514681831"><ele>442.0</ele><time>2026-05-02T13:16:51Z</time></trkpt><trkpt lat="45.79101622117468" lon="11.427640157531359"><ele>443.0</ele><time>2026-05-02T13:17:08Z</time></trkpt><trkpt lat="45.79108162134681" lon="11.427641976215114"><ele>444.0</ele><time>2026-05-02T13:17:11Z</time></trkpt><trkpt lat="45.79114538860484" lon="11.427669243098848"><ele>447.5</ele><time>2026-05-02T13:17:15Z</time></trkpt><trkpt lat="45.79123774781216" lon="11.427745077485769"><ele>451.0</ele><time>2026-05-02T13:17:33Z</time></trkpt><trkpt lat="45.79124136339246" lon="11.427843902318623"><ele>454.5</ele><time>2026-05-02T13:17:42Z</time></trkpt><trkpt lat="45.79121029250537" lon="11.427939203209002"><ele>458.0</ele><time>2026-05-02T13:17:47Z</time></trkpt><trkpt lat="45.791234088228805" lon="11.428031537650401"><ele>461.5</ele><time>2026-05-02T13:17:53Z</time></trkpt><trkpt lat="45.79128866140744" lon="11.428109327803117"><ele>465.0</ele><time>2026-05-02T13:17:57Z</time></trkpt><trkpt lat="45.79133612427979" lon="11.428195393497814"><ele>466.0</ele><time>2026-05-02T13:18:00Z</time></trkpt><trkpt lat="45.791356226402414" lon="11.428288964074586"><ele>467.0</ele><time>2026-05-02T13:18:05Z</time></trkpt><trkpt lat="45.791384792709344" lon="11.42837145034712"><ele>468.0</ele><time>2026-05-02T13:18:11Z</time></trkpt><trkpt lat="45.79145750995145" lon="11.428447671898057"><ele>469.0</ele><time>2026-05-02T13:18:50Z</time></trkpt><trkpt lat="45.79154053932816" lon="11.428466473907537"><ele>470.0</ele><time>2026-05-02T13:18:57Z</time></trkpt><trkpt lat="45.791573020163824" lon="11.428326514003865"><ele>471.0</ele><time>2026-05-02T13:22:16Z</time></trkpt><trkpt lat="45.791517778655354" lon="11.428394897069522"><ele>471.00000000000006</ele><time>2026-05-02T13:22:26Z</time></trkpt><trkpt lat="45.79144869333592" lon="11.42839548788421"><ele>471.0</ele><time>2026-05-02T13:22:42Z</time></trkpt><trkpt lat="45.79145802844394" lon="11.428504219800814"><ele>471.00000000000006</ele><time>2026-05-02T13:22:51Z</time></trkpt><trkpt lat="45.79148160716971" lon="11.428594206728082"><ele>471.00000000000006</ele><time>2026-05-02T13:23:33Z</time></trkpt><trkpt lat="45.79154621101519" lon="11.428647849908927"><ele>471.0</ele><time>2026-05-02T13:23:42Z</time></trkpt><trkpt lat="45.79156501307937" lon="11.428740245919762"><ele>471.00000000000006</ele><time>2026-05-02T13:26:31Z</time></trkpt><trkpt lat="45.79156924132891" lon="11.428641577114464"><ele>471.00000000000006</ele><time>2026-05-02T13:32:28Z</time></trkpt><trkpt lat="45.79157520846423" lon="11.428523400187618"><ele>471.00000000000006</ele><time>2026-05-02T13:32:35Z</time></trkpt><trkpt lat="45.79160765173717" lon="11.428434821620899"><ele>471.0</ele><time>2026-05-02T13:32:44Z</time></trkpt><trkpt lat="45.791678619385735" lon="11.42849750297331"><ele>471.00000000000006</ele><time>2026-05-02T13:32:59Z</time></trkpt><trkpt lat="45.791754598255466" lon="11.428551571462888"><ele>471.00000000000006</ele><time>2026-05-02T13:33:36Z</time></trkpt><trkpt lat="45.79178620908055" lon="11.42863228524673"><ele>471.0</ele><time>2026-05-02T13:33:42Z</time></trkpt><trkpt lat="45.791742702627744" lon="11.428697833992336"><ele>471.00000000000006</ele><time>2026-05-02T13:34:21Z</time></trkpt><trkpt lat="45.79169304380959" lon="11.428774480547657"><ele>471.00000000000006</ele><time>2026-05-02T13:34:25Z</time></trkpt><trkpt lat="45.79163219035503" lon="11.428867656240808"><ele>471.0</ele><time>2026-05-02T13:34:40Z</time></trkpt><trkpt lat="45.791562385513046" lon="11.428878873626449"><ele>471.0</ele><time>2026-05-02T13:34:53Z</time></trkpt><trkpt lat="45.791459160406895" lon="11.428758644053023"><ele>471.0</ele><time>2026-05-02T13:34:55Z</time></trkpt><trkpt lat="45.7913794195206" lon="11.428643988797123"><ele>471.0</ele><time>2026-05-02T13:34:57Z</time></trkpt><trkpt lat="45.79131351260029" lon="11.428708035322261"><ele>471.0</ele><time>2026-05-02T13:35:00Z</time></trkpt><trkpt lat="45.79130870376739" lon="11.428822059750193"><ele>470.1666666666667</ele><time>2026-05-02T13:35:02Z</time></trkpt><trkpt lat="45.791297957244666" lon="11.428920707321614"><ele>469.33333333333337</ele><time>2026-05-02T13:35:04Z</time></trkpt><trkpt lat="45.791250209871635" lon="11.429011124903857"><ele>468.5</ele><time>2026-05-02T13:35:07Z</time></trkpt><trkpt lat="45.79117504245321" lon="11.429047682403517"><ele>467.6666666666667</ele><time>2026-05-02T13:35:10Z</time></trkpt><trkpt lat="45.79111243339955" lon="11.429097343648266"><ele>466.83333333333337</ele><time>2026-05-02T13:35:13Z</time></trkpt><trkpt lat="45.791051012408" lon="11.429123170209188"><ele>466.0</ele><time>2026-05-02T13:35:16Z</time></trkpt><trkpt lat="45.790980009455346" lon="11.429042899508426"><ele>466.00000000000006</ele><time>2026-05-02T13:35:19Z</time></trkpt><trkpt lat="45.79091344935841" lon="11.429022198739077"><ele>466.0</ele><time>2026-05-02T13:35:22Z</time></trkpt><trkpt lat="45.790856387969995" lon="11.428979808245622"><ele>466.0</ele><time>2026-05-02T13:35:24Z</time></trkpt><trkpt lat="45.79079132535279" lon="11.428946319472011"><ele>466.0</ele><time>2026-05-02T13:35:26Z</time></trkpt><trkpt lat="45.790674436146205" lon="11.428971167006027"><ele>466.00000000000006</ele><time>2026-05-02T13:35:28Z</time></trkpt><trkpt lat="45.790601684426356" lon="11.428977833413956"><ele>466.0</ele><time>2026-05-02T13:35:29Z</time></trkpt><trkpt lat="45.790537381557776" lon="11.428982307724258"><ele>466.0</ele><time>2026-05-02T13:35:31Z</time></trkpt><trkpt lat="45.790456847212944" lon="11.428964476887744"><ele>466.0</ele><time>2026-05-02T13:35:33Z</time></trkpt><trkpt lat="45.790391612335085" lon="11.428935617088014"><ele>466.0</ele><time>2026-05-02T13:35:35Z</time></trkpt><trkpt lat="45.79032639856836" lon="11.428900232137071"><ele>466.0</ele><time>2026-05-02T13:35:37Z</time></trkpt><trkpt lat="45.79020044833409" lon="11.42883117203207"><ele>466.0</ele><time>2026-05-02T13:35:39Z</time></trkpt><trkpt lat="45.79010090065072" lon="11.42885516991077"><ele>462.83333333333337</ele><time>2026-05-02T13:35:42Z</time></trkpt><trkpt lat="45.79000391883007" lon="11.428873140583429"><ele>459.6666666666667</ele><time>2026-05-02T13:35:44Z</time></trkpt><trkpt lat="45.789919578730355" lon="11.42886904241474"><ele>456.5</ele><time>2026-05-02T13:35:46Z</time></trkpt><trkpt lat="45.78984670776186" lon="11.428816752988263"><ele>453.33333333333337</ele><time>2026-05-02T13:35:48Z</time></trkpt><trkpt lat="45.78974637701841" lon="11.428797308975547"><ele>450.1666666666667</ele><time>2026-05-02T13:35:50Z</time></trkpt><trkpt lat="45.789664611551856" lon="11.428801800794941"><ele>447.0</ele><time>2026-05-02T13:35:51Z</time></trkpt><trkpt lat="45.789548970680485" lon="11.428808896059392"><ele>444.6</ele><time>2026-05-02T13:35:53Z</time></trkpt><trkpt lat="45.789434139877415" lon="11.428762147505763"><ele>442.20000000000005</ele><time>2026-05-02T13:35:56Z</time></trkpt><trkpt lat="45.7893621569652" lon="11.428736175800077"><ele>439.8</ele><time>2026-05-02T13:35:57Z</time></trkpt><trkpt lat="45.78930219079616" lon="11.428703533464418"><ele>437.4</ele><time>2026-05-02T13:35:58Z</time></trkpt><trkpt lat="45.78921622040884" lon="11.428657837785876"><ele>435.0</ele><time>2026-05-02T13:36:00Z</time></trkpt><trkpt lat="45.78912536304773" lon="11.42859541550391"><ele>433.0</ele><time>2026-05-02T13:36:02Z</time></trkpt><trkpt lat="45.78903346829531" lon="11.428561697630567"><ele>431.0</ele><time>2026-05-02T13:36:04Z</time></trkpt><trkpt lat="45.78895495069157" lon="11.428582576314499"><ele>429.0</ele><time>2026-05-02T13:36:06Z</time></trkpt><trkpt lat="45.78889111458294" lon="11.428664880781861"><ele>427.0</ele><time>2026-05-02T13:36:08Z</time></trkpt><trkpt lat="45.788815102111855" lon="11.428719115247212"><ele>425.0</ele><time>2026-05-02T13:36:10Z</time></trkpt><trkpt lat="45.788729812684345" lon="11.428742319390418"><ele>423.0</ele><time>2026-05-02T13:36:12Z</time></trkpt><trkpt lat="45.78863644097867" lon="11.428775200027406"><ele>423.79999999999995</ele><time>2026-05-02T13:36:14Z</time></trkpt><trkpt lat="45.78855024701653" lon="11.428865075007893"><ele>424.6</ele><time>2026-05-02T13:36:16Z</time></trkpt><trkpt lat="45.78846624028504" lon="11.428860665773128"><ele>425.40000000000003</ele><time>2026-05-02T13:36:22Z</time></trkpt><trkpt lat="45.788418774798345" lon="11.428920174640037"><ele>426.20000000000005</ele><time>2026-05-02T13:36:24Z</time></trkpt><trkpt lat="45.78826444697058" lon="11.429042220650953"><ele>427.0</ele><time>2026-05-02T13:36:26Z</time></trkpt><trkpt lat="45.78817809317818" lon="11.42903361096344"><ele>424.50000000000006</ele><time>2026-05-02T13:36:28Z</time></trkpt><trkpt lat="45.78810714430108" lon="11.429048962436777"><ele>422.0</ele><time>2026-05-02T13:36:31Z</time></trkpt><trkpt lat="45.78803639349869" lon="11.429104530275895"><ele>419.5</ele><time>2026-05-02T13:36:34Z</time></trkpt><trkpt lat="45.78795635813598" lon="11.429129424670947"><ele>417.0</ele><time>2026-05-02T13:36:36Z</time></trkpt><trkpt lat="45.78787038639596" lon="11.429152659872122"><ele>414.50000000000006</ele><time>2026-05-02T13:36:38Z</time></trkpt><trkpt lat="45.787761529535466" lon="11.429165995495847"><ele>412.0</ele><time>2026-05-02T13:36:40Z</time></trkpt><trkpt lat="45.787673452983476" lon="11.42917717901784"><ele>409.1428571428571</ele><time>2026-05-02T13:36:42Z</time></trkpt><trkpt lat="45.78761839367314" lon="11.429273809502131"><ele>406.2857142857143</ele><time>2026-05-02T13:36:46Z</time></trkpt><trkpt lat="45.78758892526348" lon="11.429358169725573"><ele>403.42857142857144</ele><time>2026-05-02T13:36:49Z</time></trkpt><trkpt lat="45.78754689512933" lon="11.429440797550285"><ele>400.57142857142856</ele><time>2026-05-02T13:36:52Z</time></trkpt><trkpt lat="45.787515716159966" lon="11.429541564590904"><ele>397.7142857142857</ele><time>2026-05-02T13:36:56Z</time></trkpt><trkpt lat="45.78748538087485" lon="11.429635281758552"><ele>394.85714285714283</ele><time>2026-05-02T13:36:59Z</time></trkpt><trkpt lat="45.7874379520561" lon="11.42971507363711"><ele>392.0</ele><time>2026-05-02T13:37:02Z</time></trkpt><trkpt lat="45.78736578090941" lon="11.429767621471564"><ele>392.0</ele><time>2026-05-02T13:37:05Z</time></trkpt><trkpt lat="45.78732345594733" lon="11.429859411998263"><ele>392.0</ele><time>2026-05-02T13:37:08Z</time></trkpt><trkpt lat="45.787262140450906" lon="11.42989971560124"><ele>392.0</ele><time>2026-05-02T13:37:11Z</time></trkpt><trkpt lat="45.78720046829882" lon="11.429988857809619"><ele>392.0</ele><time>2026-05-02T13:37:14Z</time></trkpt><trkpt lat="45.787167267115954" lon="11.430077082936952"><ele>392.0</ele><time>2026-05-02T13:37:17Z</time></trkpt><trkpt lat="45.787119268937715" lon="11.430166558607173"><ele>392.0</ele><time>2026-05-02T13:37:20Z</time></trkpt><trkpt lat="45.78707216843305" lon="11.430231654664151"><ele>392.0</ele><time>2026-05-02T13:37:23Z</time></trkpt><trkpt lat="45.787014741591065" lon="11.430274079705619"><ele>391.99999999999994</ele><time>2026-05-02T13:37:27Z</time></trkpt><trkpt lat="45.78694424158604" lon="11.430345279408302"><ele>392.0</ele><time>2026-05-02T13:37:29Z</time></trkpt><trkpt lat="45.78687557991458" lon="11.430446142393473"><ele>392.0</ele><time>2026-05-02T13:37:32Z</time></trkpt><trkpt lat="45.78682208890869" lon="11.430538702738964"><ele>392.0</ele><time>2026-05-02T13:37:34Z</time></trkpt><trkpt lat="45.7867610453473" lon="11.430571539567339"><ele>391.99999999999994</ele><time>2026-05-02T13:37:36Z</time></trkpt><trkpt lat="45.786685338001014" lon="11.43060241022012"><ele>392.0</ele><time>2026-05-02T13:37:41Z</time></trkpt><trkpt lat="45.78662286982582" lon="11.43063305738409"><ele>388.3333333333333</ele><time>2026-05-02T13:37:45Z</time></trkpt><trkpt lat="45.786561782943934" lon="11.430659677416902"><ele>384.66666666666663</ele><time>2026-05-02T13:37:49Z</time></trkpt><trkpt lat="45.78650884851496" lon="11.430765755289581"><ele>381.0</ele><time>2026-05-02T13:37:52Z</time></trkpt><trkpt lat="45.786443667897636" lon="11.430842635714663"><ele>377.3333333333333</ele><time>2026-05-02T13:37:54Z</time></trkpt><trkpt lat="45.78638803269095" lon="11.430912125901461"><ele>373.66666666666663</ele><time>2026-05-02T13:37:56Z</time></trkpt><trkpt lat="45.786372028547284" lon="11.431012249986683"><ele>370.0</ele><time>2026-05-02T13:37:58Z</time></trkpt><trkpt lat="45.78638752154299" lon="11.431140027809557"><ele>370.0</ele><time>2026-05-02T13:38:00Z</time></trkpt><trkpt lat="45.78640191491033" lon="11.43126730092678"><ele>370.0</ele><time>2026-05-02T13:38:02Z</time></trkpt><trkpt lat="45.78637437547331" lon="11.431392718130162"><ele>370.0</ele><time>2026-05-02T13:38:04Z</time></trkpt><trkpt lat="45.78639678224037" lon="11.431498286877074"><ele>370.0</ele><time>2026-05-02T13:38:06Z</time></trkpt><trkpt lat="45.78643248980483" lon="11.431605641972103"><ele>370.0</ele><time>2026-05-02T13:38:08Z</time></trkpt><trkpt lat="45.786477310040276" lon="11.431717366398692"><ele>370.0</ele><time>2026-05-02T13:38:10Z</time></trkpt><trkpt lat="45.786472691383544" lon="11.431824888921332"><ele>370.66666666666663</ele><time>2026-05-02T13:38:12Z</time></trkpt><trkpt lat="45.78646982317575" lon="11.431916329400366"><ele>371.3333333333333</ele><time>2026-05-02T13:38:14Z</time></trkpt><trkpt lat="45.78642021626815" lon="11.432016008156658"><ele>372.0</ele><time>2026-05-02T13:38:17Z</time></trkpt><trkpt lat="45.786365461914386" lon="11.432085958096375"><ele>372.6666666666667</ele><time>2026-05-02T13:38:19Z</time></trkpt><trkpt lat="45.786284127885395" lon="11.432210433005794"><ele>373.33333333333337</ele><time>2026-05-02T13:38:21Z</time></trkpt><trkpt lat="45.78621742737355" lon="11.432320341994219"><ele>374.0</ele><time>2026-05-02T13:38:23Z</time></trkpt><trkpt lat="45.78612307316969" lon="11.432509313020333"><ele>372.1666666666667</ele><time>2026-05-02T13:38:25Z</time></trkpt><trkpt lat="45.7860952678432" lon="11.432601656793892"><ele>370.33333333333337</ele><time>2026-05-02T13:38:26Z</time></trkpt><trkpt lat="45.78605813892841" lon="11.432764614409315"><ele>368.5</ele><time>2026-05-02T13:38:28Z</time></trkpt><trkpt lat="45.78602689642727" lon="11.432851579849677"><ele>366.6666666666667</ele><time>2026-05-02T13:38:29Z</time></trkpt><trkpt lat="45.78599670048827" lon="11.432941885026432"><ele>364.8333333333333</ele><time>2026-05-02T13:38:30Z</time></trkpt><trkpt lat="45.78596030801005" lon="11.433028203986426"><ele>363.0</ele><time>2026-05-02T13:38:31Z</time></trkpt><trkpt lat="45.78592034675258" lon="11.433113768206253"><ele>363.0</ele><time>2026-05-02T13:38:32Z</time></trkpt><trkpt lat="45.785883937179364" lon="11.43319481814374"><ele>363.0</ele><time>2026-05-02T13:38:33Z</time></trkpt><trkpt lat="45.785851767662884" lon="11.433275752564386"><ele>363.0</ele><time>2026-05-02T13:38:34Z</time></trkpt><trkpt lat="45.78578074339565" lon="11.433411369843405"><ele>363.0</ele><time>2026-05-02T13:38:36Z</time></trkpt><trkpt lat="45.785681533559504" lon="11.433508902424705"><ele>363.0</ele><time>2026-05-02T13:38:38Z</time></trkpt><trkpt lat="45.78557734041417" lon="11.433589906586565"><ele>363.0</ele><time>2026-05-02T13:38:40Z</time></trkpt><trkpt lat="45.78546760800119" lon="11.433642666549769"><ele>363.0</ele><time>2026-05-02T13:38:42Z</time></trkpt><trkpt lat="45.7853670375761" lon="11.43368744109465"><ele>363.0</ele><time>2026-05-02T13:38:44Z</time></trkpt><trkpt lat="45.785267406846025" lon="11.43373990665793"><ele>363.0</ele><time>2026-05-02T13:38:46Z</time></trkpt><trkpt lat="45.78516876937831" lon="11.433816676411192"><ele>363.0</ele><time>2026-05-02T13:38:48Z</time></trkpt><trkpt lat="45.78509817110455" lon="11.433919280708153"><ele>361.59999999999997</ele><time>2026-05-02T13:38:50Z</time></trkpt><trkpt lat="45.78502794304787" lon="11.434018685619542"><ele>360.2</ele><time>2026-05-02T13:38:52Z</time></trkpt><trkpt lat="45.784981339754374" lon="11.434137993883262"><ele>358.8</ele><time>2026-05-02T13:38:54Z</time></trkpt><trkpt lat="45.78489731951619" lon="11.434227399300278"><ele>357.4</ele><time>2026-05-02T13:38:56Z</time></trkpt><trkpt lat="45.78482027788707" lon="11.434316926033404"><ele>356.0</ele><time>2026-05-02T13:38:58Z</time></trkpt><trkpt lat="45.78473175545437" lon="11.434406232476963"><ele>356.0</ele><time>2026-05-02T13:39:00Z</time></trkpt><trkpt lat="45.78463154817185" lon="11.434479303727702"><ele>356.0</ele><time>2026-05-02T13:39:02Z</time></trkpt><trkpt lat="45.7845699967082" lon="11.434519390148662"><ele>356.0</ele><time>2026-05-02T13:39:03Z</time></trkpt><trkpt lat="45.784507832252956" lon="11.434562908026454"><ele>356.0</ele><time>2026-05-02T13:39:04Z</time></trkpt><trkpt lat="45.78443964954426" lon="11.434604408396032"><ele>356.0</ele><time>2026-05-02T13:39:05Z</time></trkpt><trkpt lat="45.78437435079005" lon="11.434641839172622"><ele>356.0</ele><time>2026-05-02T13:39:06Z</time></trkpt><trkpt lat="45.78430680418169" lon="11.434689150449747"><ele>354.0</ele><time>2026-05-02T13:39:07Z</time></trkpt><trkpt lat="45.784242852345116" lon="11.434747551823493"><ele>352.0</ele><time>2026-05-02T13:39:08Z</time></trkpt><trkpt lat="45.78417641294665" lon="11.434793225210438"><ele>350.0</ele><time>2026-05-02T13:39:09Z</time></trkpt><trkpt lat="45.784112357103" lon="11.434847265658199"><ele>348.0</ele><time>2026-05-02T13:39:10Z</time></trkpt><trkpt lat="45.78404816376462" lon="11.434906844004347"><ele>346.0</ele><time>2026-05-02T13:39:11Z</time></trkpt><trkpt lat="45.783981616773886" lon="11.434957103710683"><ele>344.0</ele><time>2026-05-02T13:39:12Z</time></trkpt><trkpt lat="45.78391463500294" lon="11.435023026873695"><ele>344.0</ele><time>2026-05-02T13:39:13Z</time></trkpt><trkpt lat="45.783840165201255" lon="11.435084481657144"><ele>344.0</ele><time>2026-05-02T13:39:14Z</time></trkpt><trkpt lat="45.783757673380606" lon="11.435135014076886"><ele>344.0</ele><time>2026-05-02T13:39:15Z</time></trkpt><trkpt lat="45.78367744357915" lon="11.435196508757627"><ele>344.0</ele><time>2026-05-02T13:39:16Z</time></trkpt><trkpt lat="45.78360887815818" lon="11.43526280163578"><ele>344.0</ele><time>2026-05-02T13:39:17Z</time></trkpt><trkpt lat="45.78353891586521" lon="11.435330163029661"><ele>344.0</ele><time>2026-05-02T13:39:18Z</time></trkpt><trkpt lat="45.78347401387602" lon="11.435410352610972"><ele>341.83333333333337</ele><time>2026-05-02T13:39:19Z</time></trkpt><trkpt lat="45.78341377911754" lon="11.435494945170165"><ele>339.6666666666667</ele><time>2026-05-02T13:39:20Z</time></trkpt><trkpt lat="45.783364292529" lon="11.435575319462409"><ele>337.5</ele><time>2026-05-02T13:39:21Z</time></trkpt><trkpt lat="45.78331754516109" lon="11.435658759037521"><ele>335.3333333333333</ele><time>2026-05-02T13:39:22Z</time></trkpt><trkpt lat="45.78327343382975" lon="11.435742946600625"><ele>333.16666666666663</ele><time>2026-05-02T13:39:23Z</time></trkpt><trkpt lat="45.78323040975798" lon="11.435829317560758"><ele>331.0</ele><time>2026-05-02T13:39:24Z</time></trkpt><trkpt lat="45.783187196021984" lon="11.435915132326318"><ele>331.0</ele><time>2026-05-02T13:39:25Z</time></trkpt><trkpt lat="45.783153007839005" lon="11.436014430150506"><ele>331.0</ele><time>2026-05-02T13:39:26Z</time></trkpt><trkpt lat="45.78311841644053" lon="11.436114004243406"><ele>331.0</ele><time>2026-05-02T13:39:27Z</time></trkpt><trkpt lat="45.78308535732593" lon="11.436211342886276"><ele>331.0</ele><time>2026-05-02T13:39:28Z</time></trkpt><trkpt lat="45.78304814608742" lon="11.436314045417511"><ele>331.0</ele><time>2026-05-02T13:39:29Z</time></trkpt><trkpt lat="45.78301106772246" lon="11.436409801935929"><ele>331.0</ele><time>2026-05-02T13:39:30Z</time></trkpt><trkpt lat="45.78297731719782" lon="11.436513680053753"><ele>331.16666666666663</ele><time>2026-05-02T13:39:31Z</time></trkpt><trkpt lat="45.78294420720256" lon="11.436619208908418"><ele>331.3333333333333</ele><time>2026-05-02T13:39:32Z</time></trkpt><trkpt lat="45.782915864492054" lon="11.436725363716073"><ele>331.5</ele><time>2026-05-02T13:39:33Z</time></trkpt><trkpt lat="45.78288465909351" lon="11.436833408279439"><ele>331.6666666666667</ele><time>2026-05-02T13:39:34Z</time></trkpt><trkpt lat="45.78285008565796" lon="11.436945436003011"><ele>331.83333333333337</ele><time>2026-05-02T13:39:35Z</time></trkpt><trkpt lat="45.782817416813366" lon="11.437051605531243"><ele>332.0</ele><time>2026-05-02T13:39:36Z</time></trkpt><trkpt lat="45.782785344152764" lon="11.437156986960487"><ele>331.5</ele><time>2026-05-02T13:39:37Z</time></trkpt><trkpt lat="45.782753151809516" lon="11.43725626800298"><ele>331.0</ele><time>2026-05-02T13:39:38Z</time></trkpt><trkpt lat="45.78270554011074" lon="11.43740071773759"><ele>330.5</ele><time>2026-05-02T13:39:40Z</time></trkpt><trkpt lat="45.782605372288714" lon="11.437413322370288"><ele>330.0</ele><time>2026-05-02T13:39:42Z</time></trkpt><trkpt lat="45.78254393722762" lon="11.437354107253684"><ele>329.5</ele><time>2026-05-02T13:39:43Z</time></trkpt><trkpt lat="45.78247155116835" lon="11.437331978528915"><ele>329.0</ele><time>2026-05-02T13:39:44Z</time></trkpt><trkpt lat="45.782367214243905" lon="11.437290014773456"><ele>325.8</ele><time>2026-05-02T13:39:46Z</time></trkpt><trkpt lat="45.7823061128173" lon="11.437421562845682"><ele>322.59999999999997</ele><time>2026-05-02T13:39:48Z</time></trkpt><trkpt lat="45.78228585572811" lon="11.437598053982619"><ele>319.4</ele><time>2026-05-02T13:39:50Z</time></trkpt><trkpt lat="45.78226044768249" lon="11.437682160704513"><ele>316.2</ele><time>2026-05-02T13:39:51Z</time></trkpt><trkpt lat="45.78221420260514" lon="11.437848863671949"><ele>313.0</ele><time>2026-05-02T13:39:53Z</time></trkpt><trkpt lat="45.78218437083632" lon="11.438031285468849"><ele>312.8</ele><time>2026-05-02T13:39:55Z</time></trkpt><trkpt lat="45.7821740246946" lon="11.43819132685298"><ele>312.6</ele><time>2026-05-02T13:39:57Z</time></trkpt><trkpt lat="45.7821627247677" lon="11.438306101091815"><ele>312.4</ele><time>2026-05-02T13:40:02Z</time></trkpt><trkpt lat="45.782123479793256" lon="11.438415274871565"><ele>312.2</ele><time>2026-05-02T13:40:05Z</time></trkpt><trkpt lat="45.78205575739858" lon="11.43850850244191"><ele>312.0</ele><time>2026-05-02T13:40:09Z</time></trkpt><trkpt lat="45.78198787073216" lon="11.43857496168165"><ele>312.0</ele><time>2026-05-02T13:40:12Z</time></trkpt><trkpt lat="45.78192619296649" lon="11.438665359859996"><ele>312.0</ele><time>2026-05-02T13:40:15Z</time></trkpt><trkpt lat="45.781871112509734" lon="11.438723321845117"><ele>312.0</ele><time>2026-05-02T13:40:17Z</time></trkpt><trkpt lat="45.78181016219598" lon="11.438804230132025"><ele>312.0</ele><time>2026-05-02T13:40:20Z</time></trkpt><trkpt lat="45.78174470875575" lon="11.438894635047244"><ele>312.0</ele><time>2026-05-02T13:40:23Z</time></trkpt><trkpt lat="45.78168260304504" lon="11.438914768550472"><ele>312.0</ele><time>2026-05-02T13:40:37Z</time></trkpt><trkpt lat="45.78161920865659" lon="11.438880009449214"><ele>310.0</ele><time>2026-05-02T13:41:06Z</time></trkpt><trkpt lat="45.78156361647833" lon="11.438954757433516"><ele>308.0</ele><time>2026-05-02T13:41:14Z</time></trkpt><trkpt lat="45.78152846127317" lon="11.43910131166025"><ele>306.0</ele><time>2026-05-02T13:41:16Z</time></trkpt><trkpt lat="45.78149475234844" lon="11.439185898061396"><ele>304.0</ele><time>2026-05-02T13:41:17Z</time></trkpt><trkpt lat="45.78146800776751" lon="11.439269532437462"><ele>302.0</ele><time>2026-05-02T13:41:18Z</time></trkpt><trkpt lat="45.7814369770356" lon="11.439351202442108"><ele>300.0</ele><time>2026-05-02T13:41:19Z</time></trkpt><trkpt lat="45.78137895448958" lon="11.439499871945921"><ele>300.5</ele><time>2026-05-02T13:41:21Z</time></trkpt><trkpt lat="45.78131397272605" lon="11.439659204260723"><ele>301.0</ele><time>2026-05-02T13:41:23Z</time></trkpt><trkpt lat="45.781255747079115" lon="11.439740145989493"><ele>301.5</ele><time>2026-05-02T13:41:24Z</time></trkpt><trkpt lat="45.781232117453385" lon="11.439848767584538"><ele>302.0</ele><time>2026-05-02T13:41:25Z</time></trkpt><trkpt lat="45.78119695831385" lon="11.439948685731379"><ele>302.5</ele><time>2026-05-02T13:41:26Z</time></trkpt><trkpt lat="45.78115747002973" lon="11.440044649448152"><ele>303.0</ele><time>2026-05-02T13:41:27Z</time></trkpt><trkpt lat="45.78112440720625" lon="11.440148234680457"><ele>303.0</ele><time>2026-05-02T13:41:28Z</time></trkpt><trkpt lat="45.78108157345029" lon="11.44024526361226"><ele>303.0</ele><time>2026-05-02T13:41:29Z</time></trkpt><trkpt lat="45.78099791595226" lon="11.440304407068588"><ele>303.0</ele><time>2026-05-02T13:41:30Z</time></trkpt><trkpt lat="45.78094939682776" lon="11.440396130258831"><ele>303.0</ele><time>2026-05-02T13:41:31Z</time></trkpt><trkpt lat="45.7809151609335" lon="11.440523910146553"><ele>303.0</ele><time>2026-05-02T13:41:32Z</time></trkpt><trkpt lat="45.780844757117386" lon="11.440608654136636"><ele>303.0</ele><time>2026-05-02T13:41:33Z</time></trkpt><trkpt lat="45.780782540781125" lon="11.440695555195777"><ele>302.1666666666667</ele><time>2026-05-02T13:41:34Z</time></trkpt><trkpt lat="45.78071991971712" lon="11.440776825021494"><ele>301.3333333333333</ele><time>2026-05-02T13:41:35Z</time></trkpt><trkpt lat="45.78066282412151" lon="11.440845488932231"><ele>300.5</ele><time>2026-05-02T13:41:36Z</time></trkpt><trkpt lat="45.780595705262684" lon="11.440921298208378"><ele>299.66666666666663</ele><time>2026-05-02T13:41:37Z</time></trkpt><trkpt lat="45.780525193944854" lon="11.440988916907846"><ele>298.8333333333333</ele><time>2026-05-02T13:41:38Z</time></trkpt><trkpt lat="45.78045339353925" lon="11.44106497287508"><ele>298.0</ele><time>2026-05-02T13:41:39Z</time></trkpt><trkpt lat="45.78037922632138" lon="11.441144150968302"><ele>298.0</ele><time>2026-05-02T13:41:40Z</time></trkpt><trkpt lat="45.780304303120424" lon="11.44123111598835"><ele>298.0</ele><time>2026-05-02T13:41:41Z</time></trkpt><trkpt lat="45.78022917540199" lon="11.441318158489516"><ele>298.0</ele><time>2026-05-02T13:41:42Z</time></trkpt><trkpt lat="45.78015494672244" lon="11.441404612175697"><ele>298.0</ele><time>2026-05-02T13:41:43Z</time></trkpt><trkpt lat="45.78008126406177" lon="11.441498035629358"><ele>298.0</ele><time>2026-05-02T13:41:44Z</time></trkpt><trkpt lat="45.780011394888405" lon="11.441596911812418"><ele>296.6</ele><time>2026-05-02T13:41:45Z</time></trkpt><trkpt lat="45.77993960745094" lon="11.441687537874477"><ele>295.20000000000005</ele><time>2026-05-02T13:41:46Z</time></trkpt><trkpt lat="45.77987024258608" lon="11.441783581076537"><ele>293.8</ele><time>2026-05-02T13:41:47Z</time></trkpt><trkpt lat="45.779804712126804" lon="11.441881982421068"><ele>292.40000000000003</ele><time>2026-05-02T13:41:48Z</time></trkpt><trkpt lat="45.77973875212622" lon="11.44198047690613"><ele>291.0</ele><time>2026-05-02T13:41:49Z</time></trkpt><trkpt lat="45.7796692848992" lon="11.442082079682299"><ele>291.40000000000003</ele><time>2026-05-02T13:41:50Z</time></trkpt><trkpt lat="45.779602579661415" lon="11.44218597831487"><ele>291.8</ele><time>2026-05-02T13:41:51Z</time></trkpt><trkpt lat="45.77953255479561" lon="11.442294015823691"><ele>292.20000000000005</ele><time>2026-05-02T13:41:52Z</time></trkpt><trkpt lat="45.779463357045366" lon="11.442401423518486"><ele>292.6</ele><time>2026-05-02T13:41:53Z</time></trkpt><trkpt lat="45.77939580476616" lon="11.442508746763725"><ele>293.0</ele><time>2026-05-02T13:41:54Z</time></trkpt><trkpt lat="45.7793321417895" lon="11.442618513424302"><ele>290.6</ele><time>2026-05-02T13:41:55Z</time></trkpt><trkpt lat="45.77926778291845" lon="11.44272794518091"><ele>288.20000000000005</ele><time>2026-05-02T13:41:56Z</time></trkpt><trkpt lat="45.77920475283707" lon="11.442845011014349"><ele>285.8</ele><time>2026-05-02T13:41:57Z</time></trkpt><trkpt lat="45.779140636149776" lon="11.442953377340269"><ele>283.40000000000003</ele><time>2026-05-02T13:41:58Z</time></trkpt><trkpt lat="45.77907622272425" lon="11.443061185942792"><ele>281.0</ele><time>2026-05-02T13:41:59Z</time></trkpt><trkpt lat="45.77901100372196" lon="11.4431746717653"><ele>281.0</ele><time>2026-05-02T13:42:00Z</time></trkpt><trkpt lat="45.77895295897218" lon="11.443283154967494"><ele>281.0</ele><time>2026-05-02T13:42:01Z</time></trkpt><trkpt lat="45.77889318191818" lon="11.443387001016871"><ele>281.0</ele><time>2026-05-02T13:42:02Z</time></trkpt><trkpt lat="45.778834632397746" lon="11.44349430335851"><ele>281.0</ele><time>2026-05-02T13:42:03Z</time></trkpt><trkpt lat="45.77877834757351" lon="11.4435954302817"><ele>281.0</ele><time>2026-05-02T13:42:04Z</time></trkpt><trkpt lat="45.77871925549904" lon="11.443696999478368"><ele>281.6</ele><time>2026-05-02T13:42:05Z</time></trkpt><trkpt lat="45.77866059118852" lon="11.443797417180637"><ele>282.20000000000005</ele><time>2026-05-02T13:42:06Z</time></trkpt><trkpt lat="45.778603878839974" lon="11.443904706574761"><ele>282.79999999999995</ele><time>2026-05-02T13:42:07Z</time></trkpt><trkpt lat="45.7785462020887" lon="11.444005521944737"><ele>283.4</ele><time>2026-05-02T13:42:08Z</time></trkpt><trkpt lat="45.77848589154755" lon="11.444110721327712"><ele>284.0</ele><time>2026-05-02T13:42:09Z</time></trkpt><trkpt lat="45.77842791696702" lon="11.444216165879455"><ele>282.4</ele><time>2026-05-02T13:42:10Z</time></trkpt><trkpt lat="45.77837068398082" lon="11.444322432394937"><ele>280.79999999999995</ele><time>2026-05-02T13:42:11Z</time></trkpt><trkpt lat="45.77831175722619" lon="11.444430588157038"><ele>279.20000000000005</ele><time>2026-05-02T13:42:12Z</time></trkpt><trkpt lat="45.778252569586485" lon="11.444538640145346"><ele>277.6</ele><time>2026-05-02T13:42:13Z</time></trkpt><trkpt lat="45.778195976020115" lon="11.444646075409578"><ele>276.0</ele><time>2026-05-02T13:42:14Z</time></trkpt><trkpt lat="45.7781314581428" lon="11.444748263120147"><ele>276.0</ele><time>2026-05-02T13:42:15Z</time></trkpt><trkpt lat="45.778069972310035" lon="11.444855861950396"><ele>276.0</ele><time>2026-05-02T13:42:16Z</time></trkpt><trkpt lat="45.778010501658706" lon="11.44496342483395"><ele>276.0</ele><time>2026-05-02T13:42:17Z</time></trkpt><trkpt lat="45.7779506637411" lon="11.445067983304808"><ele>276.0</ele><time>2026-05-02T13:42:18Z</time></trkpt><trkpt lat="45.7778899410389" lon="11.445172366796035"><ele>276.0</ele><time>2026-05-02T13:42:19Z</time></trkpt><trkpt lat="45.77783026964767" lon="11.445280525116692"><ele>276.0</ele><time>2026-05-02T13:42:20Z</time></trkpt><trkpt lat="45.77777078542016" lon="11.445387628849256"><ele>276.0</ele><time>2026-05-02T13:42:21Z</time></trkpt><trkpt lat="45.77770937878407" lon="11.445493356355435"><ele>276.0</ele><time>2026-05-02T13:42:22Z</time></trkpt><trkpt lat="45.77764777567859" lon="11.445600116693075"><ele>276.0</ele><time>2026-05-02T13:42:23Z</time></trkpt><trkpt lat="45.7775866832341" lon="11.445710756963498"><ele>276.0</ele><time>2026-05-02T13:42:24Z</time></trkpt><trkpt lat="45.777530100220865" lon="11.445823776220678"><ele>275.0</ele><time>2026-05-02T13:42:25Z</time></trkpt><trkpt lat="45.77746966464381" lon="11.445933471500101"><ele>274.0</ele><time>2026-05-02T13:42:26Z</time></trkpt><trkpt lat="45.77740937704463" lon="11.446045038632382"><ele>273.0</ele><time>2026-05-02T13:42:27Z</time></trkpt><trkpt lat="45.77734481423028" lon="11.446154252790846"><ele>272.0</ele><time>2026-05-02T13:42:28Z</time></trkpt><trkpt lat="45.77728043111455" lon="11.446261221613419"><ele>271.0</ele><time>2026-05-02T13:42:29Z</time></trkpt><trkpt lat="45.777218616885946" lon="11.4463705305268"><ele>270.6</ele><time>2026-05-02T13:42:30Z</time></trkpt><trkpt lat="45.77715624888777" lon="11.446473958378064"><ele>270.20000000000005</ele><time>2026-05-02T13:42:31Z</time></trkpt><trkpt lat="45.777100923979305" lon="11.44657834575337"><ele>269.79999999999995</ele><time>2026-05-02T13:42:32Z</time></trkpt><trkpt lat="45.77704565912317" lon="11.446676675377951"><ele>269.4</ele><time>2026-05-02T13:42:33Z</time></trkpt><trkpt lat="45.77698919433859" lon="11.446773074972118"><ele>269.0</ele><time>2026-05-02T13:42:34Z</time></trkpt><trkpt lat="45.77693340231605" lon="11.446868651411176"><ele>269.0</ele><time>2026-05-02T13:42:35Z</time></trkpt><trkpt lat="45.77687781794426" lon="11.446968873528371"><ele>269.0</ele><time>2026-05-02T13:42:36Z</time></trkpt><trkpt lat="45.776830185265595" lon="11.44706739594858"><ele>269.0</ele><time>2026-05-02T13:42:37Z</time></trkpt><trkpt lat="45.776781997730176" lon="11.4471512505663"><ele>269.0</ele><time>2026-05-02T13:42:38Z</time></trkpt><trkpt lat="45.77674281501652" lon="11.447224805711398"><ele>269.0</ele><time>2026-05-02T13:42:39Z</time></trkpt><trkpt lat="45.7768198567553" lon="11.447384419220294"><ele>269.0</ele><time>2026-05-02T13:42:42Z</time></trkpt><trkpt lat="45.77688207179039" lon="11.447408564910504"><ele>268.8</ele><time>2026-05-02T13:42:43Z</time></trkpt><trkpt lat="45.7769799566717" lon="11.447540008048438"><ele>268.59999999999997</ele><time>2026-05-02T13:42:45Z</time></trkpt><trkpt lat="45.777040451315244" lon="11.447603548094424"><ele>268.4</ele><time>2026-05-02T13:42:46Z</time></trkpt><trkpt lat="45.777138532188594" lon="11.447678438948587"><ele>268.2</ele><time>2026-05-02T13:42:48Z</time></trkpt><trkpt lat="45.77711806074655" lon="11.447845225634905"><ele>268.0</ele><time>2026-05-02T13:42:50Z</time></trkpt><trkpt lat="45.777045941525785" lon="11.44796328716614"><ele>270.0</ele><time>2026-05-02T13:42:52Z</time></trkpt><trkpt lat="45.77698444756615" lon="11.448000847164781"><ele>270.0</ele><time>2026-05-02T13:42:54Z</time></trkpt><trkpt lat="45.776902872073244" lon="11.447891632539699"><ele>268.0</ele><time>2026-05-02T13:42:57Z</time></trkpt><trkpt lat="45.77683935047577" lon="11.44783738869523"><ele>265.0</ele><time>2026-05-02T13:43:05Z</time></trkpt><trkpt lat="45.776795600787615" lon="11.447765882392828"><ele>265.0</ele><time>2026-05-02T13:43:14Z</time></trkpt></trkseg></trk></gpx>